<?xml version="1.0" encoding="UTF-8" standalone="no" ?>
<gpx xmlns="http://www.topografix.com/GPX/1/1" xmlns:xsi="http://www.w3.org/2001/XMLSchema-instance" xsi:schemaLocation="http://www.topografix.com/GPX/1/1 http://www.topografix.com/GPX/1/1/gpx.xsd" version="1.1" creator="VisuGPX - https://www.visugpx.com">
  <metadata>
    <name>GTR Etape 2  </name>
    <desc><![CDATA[

de Grandris à Oingt.]]></desc>
  </metadata>
  <trk>
    <name><![CDATA[GTR Etape 2  ]]></name>
    <desc><![CDATA[de Grandris à Oingt.]]></desc>
    <extensions>
      <line xmlns="http://www.topografix.com/GPX/gpx_style/0/2">
        <color>00FF00</color>
        <width>7</width>
      </line>
    </extensions>
    <trkseg>
      <trkpt lat="46.0614" lon="4.47874">
        <ele>547.1</ele>
        <time>2019-06-28T17:14:07Z</time>
      </trkpt>
      <trkpt lat="46.0614" lon="4.47874">
        <ele>547.1</ele>
        <time>2019-06-28T17:14:07Z</time>
      </trkpt>
      <trkpt lat="46.06134" lon="4.47977">
        <ele>543.4</ele>
      </trkpt>
      <trkpt lat="46.06112" lon="4.48055">
        <ele>541.4</ele>
      </trkpt>
      <trkpt lat="46.05955" lon="4.48099">
        <ele>522.8</ele>
      </trkpt>
      <trkpt lat="46.05888" lon="4.48091">
        <ele>510.7</ele>
      </trkpt>
      <trkpt lat="46.05931" lon="4.47961">
        <ele>509.6</ele>
      </trkpt>
      <trkpt lat="46.05978" lon="4.47846">
        <ele>513.1</ele>
      </trkpt>
      <trkpt lat="46.05957" lon="4.47799">
        <ele>512.8</ele>
      </trkpt>
      <trkpt lat="46.05897" lon="4.47817">
        <ele>502</ele>
      </trkpt>
      <trkpt lat="46.05851" lon="4.47877">
        <ele>494.2</ele>
      </trkpt>
      <trkpt lat="46.05798" lon="4.47858">
        <ele>483.7</ele>
      </trkpt>
      <trkpt lat="46.05784" lon="4.47802">
        <ele>478.2</ele>
      </trkpt>
      <trkpt lat="46.05739" lon="4.47873">
        <ele>471.2</ele>
      </trkpt>
      <trkpt lat="46.05723" lon="4.4798">
        <ele>469.2</ele>
      </trkpt>
      <trkpt lat="46.05684" lon="4.48062">
        <ele>460.9</ele>
      </trkpt>
      <trkpt lat="46.05663" lon="4.48132">
        <ele>459.4</ele>
      </trkpt>
      <trkpt lat="46.05641" lon="4.48194">
        <ele>457.7</ele>
      </trkpt>
      <trkpt lat="46.05611" lon="4.48236">
        <ele>451.5</ele>
      </trkpt>
      <trkpt lat="46.05642" lon="4.48144">
        <ele>456.3</ele>
      </trkpt>
      <trkpt lat="46.05654" lon="4.48069">
        <ele>454.5</ele>
      </trkpt>
      <trkpt lat="46.05668" lon="4.47986">
        <ele>454.6</ele>
      </trkpt>
      <trkpt lat="46.05671" lon="4.47936">
        <ele>455.7</ele>
      </trkpt>
      <trkpt lat="46.05665" lon="4.47895">
        <ele>455.6</ele>
      </trkpt>
      <trkpt lat="46.05639" lon="4.47872">
        <ele>458.1</ele>
      </trkpt>
      <trkpt lat="46.05639" lon="4.47803">
        <ele>460.5</ele>
      </trkpt>
      <trkpt lat="46.05621" lon="4.4769">
        <ele>468.3</ele>
      </trkpt>
      <trkpt lat="46.05633" lon="4.47646">
        <ele>470.6</ele>
      </trkpt>
      <trkpt lat="46.0563" lon="4.47607">
        <ele>474.4</ele>
      </trkpt>
      <trkpt lat="46.05476" lon="4.47526">
        <ele>495.3</ele>
      </trkpt>
      <trkpt lat="46.05454" lon="4.47546">
        <ele>493.8</ele>
      </trkpt>
      <trkpt lat="46.0543" lon="4.47669">
        <ele>492.4</ele>
      </trkpt>
      <trkpt lat="46.05412" lon="4.47723">
        <ele>495.1</ele>
      </trkpt>
      <trkpt lat="46.05393" lon="4.47751">
        <ele>497</ele>
      </trkpt>
      <trkpt lat="46.05332" lon="4.47806">
        <ele>501.2</ele>
      </trkpt>
      <trkpt lat="46.05256" lon="4.47934">
        <ele>518.1</ele>
      </trkpt>
      <trkpt lat="46.05217" lon="4.47967">
        <ele>523.1</ele>
      </trkpt>
      <trkpt lat="46.05164" lon="4.47989">
        <ele>525.1</ele>
      </trkpt>
      <trkpt lat="46.05145" lon="4.4797">
        <ele>523.5</ele>
      </trkpt>
      <trkpt lat="46.05143" lon="4.47893">
        <ele>526.2</ele>
      </trkpt>
      <trkpt lat="46.05161" lon="4.47809">
        <ele>534.5</ele>
      </trkpt>
      <trkpt lat="46.05162" lon="4.47747">
        <ele>538.9</ele>
      </trkpt>
      <trkpt lat="46.05084" lon="4.47694">
        <ele>535.9</ele>
      </trkpt>
      <trkpt lat="46.0506" lon="4.47591">
        <ele>538</ele>
      </trkpt>
      <trkpt lat="46.05044" lon="4.47433">
        <ele>535.2</ele>
      </trkpt>
      <trkpt lat="46.0505" lon="4.47334">
        <ele>537.7</ele>
      </trkpt>
      <trkpt lat="46.05041" lon="4.4722">
        <ele>537.9</ele>
      </trkpt>
      <trkpt lat="46.05014" lon="4.4714">
        <ele>536.8</ele>
        <time>2019-06-28T17:14:11Z</time>
      </trkpt>
      <trkpt lat="46.04963" lon="4.47121">
        <ele>532</ele>
      </trkpt>
      <trkpt lat="46.04885" lon="4.4705">
        <ele>542</ele>
      </trkpt>
      <trkpt lat="46.04802" lon="4.47088">
        <ele>534.5</ele>
      </trkpt>
      <trkpt lat="46.0471" lon="4.47114">
        <ele>539.3</ele>
        <time>2019-06-28T17:14:16Z</time>
      </trkpt>
      <trkpt lat="46.04689" lon="4.47149">
        <ele>538.3</ele>
      </trkpt>
      <trkpt lat="46.04683" lon="4.47285">
        <ele>533.6</ele>
      </trkpt>
      <trkpt lat="46.04639" lon="4.47381">
        <ele>525.2</ele>
      </trkpt>
      <trkpt lat="46.04595" lon="4.47404">
        <ele>526</ele>
      </trkpt>
      <trkpt lat="46.04533" lon="4.47413">
        <ele>533</ele>
      </trkpt>
      <trkpt lat="46.04507" lon="4.4745">
        <ele>531.9</ele>
      </trkpt>
      <trkpt lat="46.04497" lon="4.47511">
        <ele>528.5</ele>
      </trkpt>
      <trkpt lat="46.04471" lon="4.47657">
        <ele>523.6</ele>
        <time>2019-06-28T17:14:25Z</time>
      </trkpt>
      <trkpt lat="46.04458" lon="4.47766">
        <ele>512.5</ele>
      </trkpt>
      <trkpt lat="46.04424" lon="4.47838">
        <ele>509.9</ele>
        <time>2019-06-28T17:14:39Z</time>
      </trkpt>
      <trkpt lat="46.04362" lon="4.47862">
        <ele>508</ele>
        <time>2019-06-28T17:14:50Z</time>
      </trkpt>
      <trkpt lat="46.04261" lon="4.47862">
        <ele>505.8</ele>
        <time>2019-06-28T17:14:52Z</time>
      </trkpt>
      <trkpt lat="46.04205" lon="4.47749">
        <ele>499.3</ele>
        <time>2019-06-28T17:14:57Z</time>
      </trkpt>
      <trkpt lat="46.0418" lon="4.47704">
        <ele>499.3</ele>
        <time>2019-06-28T17:14:59Z</time>
      </trkpt>
      <trkpt lat="46.04024" lon="4.47555">
        <ele>496.6</ele>
        <time>2019-06-28T17:15:04Z</time>
      </trkpt>
      <trkpt lat="46.0398" lon="4.47519">
        <ele>496.2</ele>
        <time>2019-06-28T17:15:20Z</time>
      </trkpt>
      <trkpt lat="46.03945" lon="4.47506">
        <ele>493.5</ele>
        <time>2019-06-28T17:15:35Z</time>
      </trkpt>
      <trkpt lat="46.03942" lon="4.47461">
        <ele>496.3</ele>
        <time>2019-06-28T17:15:46Z</time>
      </trkpt>
      <trkpt lat="46.03918" lon="4.47415">
        <ele>490.7</ele>
        <time>2019-06-28T17:15:52Z</time>
      </trkpt>
      <trkpt lat="46.03893" lon="4.47381">
        <ele>486.7</ele>
        <time>2019-06-28T17:15:57Z</time>
      </trkpt>
      <trkpt lat="46.0381" lon="4.47313">
        <ele>470.4</ele>
        <time>2019-06-28T17:16:05Z</time>
      </trkpt>
      <trkpt lat="46.03757" lon="4.47296">
        <ele>459.5</ele>
        <time>2019-06-28T17:16:30Z</time>
      </trkpt>
      <trkpt lat="46.03672" lon="4.47238">
        <ele>445</ele>
        <time>2019-06-28T17:16:33Z</time>
      </trkpt>
      <trkpt lat="46.03641" lon="4.47187">
        <ele>437.1</ele>
      </trkpt>
      <trkpt lat="46.03596" lon="4.47133">
        <ele>426</ele>
        <time>2019-06-28T17:16:37Z</time>
      </trkpt>
      <trkpt lat="46.03553" lon="4.47019">
        <ele>418</ele>
        <time>2019-06-28T17:16:58Z</time>
      </trkpt>
      <trkpt lat="46.0352" lon="4.46851">
        <ele>414</ele>
        <time>2019-06-28T17:17:26Z</time>
      </trkpt>
      <trkpt lat="46.03515" lon="4.46807">
        <ele>413</ele>
        <time>2019-06-28T17:17:33Z</time>
      </trkpt>
      <trkpt lat="46.03512" lon="4.46736">
        <ele>411</ele>
        <time>2019-06-28T17:17:45Z</time>
      </trkpt>
      <trkpt lat="46.035" lon="4.46705">
        <ele>407</ele>
        <time>2019-06-28T17:17:50Z</time>
      </trkpt>
      <trkpt lat="46.03497" lon="4.46691">
        <ele>408</ele>
        <time>2019-06-28T17:17:53Z</time>
      </trkpt>
      <trkpt lat="46.03455" lon="4.46652">
        <ele>414</ele>
        <time>2019-06-28T17:18:04Z</time>
      </trkpt>
      <trkpt lat="46.03445" lon="4.46651">
        <ele>416</ele>
        <time>2019-06-28T17:18:07Z</time>
      </trkpt>
      <trkpt lat="46.03436" lon="4.46657">
        <ele>417</ele>
        <time>2019-06-28T17:18:09Z</time>
      </trkpt>
      <trkpt lat="46.03419" lon="4.46684">
        <ele>419</ele>
        <time>2019-06-28T17:18:15Z</time>
      </trkpt>
      <trkpt lat="46.03414" lon="4.46685">
        <ele>420</ele>
        <time>2019-06-28T17:18:16Z</time>
      </trkpt>
      <trkpt lat="46.03391" lon="4.46634">
        <ele>426</ele>
        <time>2019-06-28T17:18:26Z</time>
      </trkpt>
      <trkpt lat="46.0336" lon="4.46597">
        <ele>432</ele>
        <time>2019-06-28T17:18:35Z</time>
      </trkpt>
      <trkpt lat="46.03326" lon="4.46583">
        <ele>437</ele>
        <time>2019-06-28T17:18:44Z</time>
      </trkpt>
      <trkpt lat="46.03291" lon="4.46555">
        <ele>446</ele>
        <time>2019-06-28T17:18:53Z</time>
      </trkpt>
      <trkpt lat="46.03286" lon="4.46544">
        <ele>447</ele>
        <time>2019-06-28T17:18:55Z</time>
      </trkpt>
      <trkpt lat="46.03268" lon="4.46527">
        <ele>449</ele>
        <time>2019-06-28T17:19:00Z</time>
      </trkpt>
      <trkpt lat="46.03155" lon="4.464">
        <ele>471</ele>
        <time>2019-06-28T17:19:34Z</time>
      </trkpt>
      <trkpt lat="46.03146" lon="4.4637">
        <ele>475</ele>
        <time>2019-06-28T17:19:39Z</time>
      </trkpt>
      <trkpt lat="46.03142" lon="4.46369">
        <ele>476</ele>
        <time>2019-06-28T17:19:40Z</time>
      </trkpt>
      <trkpt lat="46.03138" lon="4.46379">
        <ele>475</ele>
        <time>2019-06-28T17:19:42Z</time>
      </trkpt>
      <trkpt lat="46.03135" lon="4.46381">
        <ele>476</ele>
        <time>2019-06-28T17:19:43Z</time>
      </trkpt>
      <trkpt lat="46.03118" lon="4.46369">
        <ele>479</ele>
        <time>2019-06-28T17:19:47Z</time>
      </trkpt>
      <trkpt lat="46.03088" lon="4.46364">
        <ele>483</ele>
        <time>2019-06-28T17:19:54Z</time>
      </trkpt>
      <trkpt lat="46.03058" lon="4.46347">
        <ele>483</ele>
        <time>2019-06-28T17:20:02Z</time>
      </trkpt>
      <trkpt lat="46.03036" lon="4.46293">
        <ele>488</ele>
        <time>2019-06-28T17:20:12Z</time>
      </trkpt>
      <trkpt lat="46.03023" lon="4.46277">
        <ele>490</ele>
        <time>2019-06-28T17:20:16Z</time>
      </trkpt>
      <trkpt lat="46.03001" lon="4.46256">
        <ele>493</ele>
        <time>2019-06-28T17:20:22Z</time>
      </trkpt>
      <trkpt lat="46.02989" lon="4.46252">
        <ele>494</ele>
        <time>2019-06-28T17:20:25Z</time>
      </trkpt>
      <trkpt lat="46.02976" lon="4.46251">
        <ele>495</ele>
        <time>2019-06-28T17:20:28Z</time>
      </trkpt>
      <trkpt lat="46.02917" lon="4.46271">
        <ele>496</ele>
        <time>2019-06-28T17:20:42Z</time>
      </trkpt>
      <trkpt lat="46.0291" lon="4.4627">
        <ele>496</ele>
        <time>2019-06-28T17:20:44Z</time>
      </trkpt>
      <trkpt lat="46.029" lon="4.4626">
        <ele>497</ele>
        <time>2019-06-28T17:20:46Z</time>
      </trkpt>
      <trkpt lat="46.02896" lon="4.46249">
        <ele>498</ele>
        <time>2019-06-28T17:20:48Z</time>
      </trkpt>
      <trkpt lat="46.02899" lon="4.46222">
        <ele>503</ele>
        <time>2019-06-28T17:20:53Z</time>
      </trkpt>
      <trkpt lat="46.02913" lon="4.46205">
        <ele>506</ele>
        <time>2019-06-28T17:20:57Z</time>
      </trkpt>
      <trkpt lat="46.02914" lon="4.462">
        <ele>507</ele>
        <time>2019-06-28T17:20:58Z</time>
      </trkpt>
      <trkpt lat="46.02903" lon="4.46176">
        <ele>511</ele>
        <time>2019-06-28T17:21:03Z</time>
      </trkpt>
      <trkpt lat="46.02826" lon="4.46083">
        <ele>529</ele>
        <time>2019-06-28T17:21:26Z</time>
      </trkpt>
      <trkpt lat="46.02809" lon="4.46054">
        <ele>531</ele>
        <time>2019-06-28T17:21:32Z</time>
      </trkpt>
      <trkpt lat="46.02784" lon="4.4603">
        <ele>532</ele>
        <time>2019-06-28T17:21:39Z</time>
      </trkpt>
      <trkpt lat="46.02774" lon="4.46012">
        <ele>535</ele>
        <time>2019-06-28T17:21:43Z</time>
      </trkpt>
      <trkpt lat="46.02762" lon="4.46003">
        <ele>536</ele>
        <time>2019-06-28T17:21:46Z</time>
      </trkpt>
      <trkpt lat="46.02735" lon="4.45991">
        <ele>536</ele>
        <time>2019-06-28T17:21:53Z</time>
      </trkpt>
      <trkpt lat="46.02725" lon="4.45981">
        <ele>537</ele>
        <time>2019-06-28T17:21:56Z</time>
      </trkpt>
      <trkpt lat="46.02642" lon="4.4586">
        <ele>556</ele>
        <time>2019-06-28T17:22:23Z</time>
      </trkpt>
      <trkpt lat="46.02623" lon="4.45848">
        <ele>558</ele>
        <time>2019-06-28T17:22:28Z</time>
      </trkpt>
      <trkpt lat="46.02598" lon="4.45841">
        <ele>559</ele>
        <time>2019-06-28T17:22:34Z</time>
      </trkpt>
      <trkpt lat="46.02595" lon="4.45838">
        <ele>560</ele>
        <time>2019-06-28T17:22:35Z</time>
      </trkpt>
      <trkpt lat="46.02592" lon="4.45823">
        <ele>563</ele>
        <time>2019-06-28T17:22:37Z</time>
      </trkpt>
      <trkpt lat="46.02567" lon="4.45797">
        <ele>569</ele>
        <time>2019-06-28T17:22:45Z</time>
      </trkpt>
      <trkpt lat="46.02556" lon="4.4579">
        <ele>570</ele>
        <time>2019-06-28T17:22:47Z</time>
      </trkpt>
      <trkpt lat="46.02524" lon="4.45747">
        <ele>579</ele>
        <time>2019-06-28T17:22:58Z</time>
      </trkpt>
      <trkpt lat="46.02501" lon="4.45724">
        <ele>582</ele>
        <time>2019-06-28T17:23:04Z</time>
      </trkpt>
      <trkpt lat="46.02442" lon="4.45705">
        <ele>589</ele>
        <time>2019-06-28T17:23:18Z</time>
      </trkpt>
      <trkpt lat="46.02384" lon="4.45705">
        <ele>594</ele>
        <time>2019-06-28T17:23:32Z</time>
      </trkpt>
      <trkpt lat="46.02354" lon="4.45701">
        <ele>598</ele>
        <time>2019-06-28T17:23:39Z</time>
      </trkpt>
      <trkpt lat="46.02347" lon="4.45698">
        <ele>600</ele>
        <time>2019-06-28T17:23:41Z</time>
      </trkpt>
      <trkpt lat="46.02346" lon="4.45676">
        <ele>602</ele>
        <time>2019-06-28T17:23:44Z</time>
      </trkpt>
      <trkpt lat="46.02348" lon="4.45661">
        <ele>604</ele>
        <time>2019-06-28T17:23:47Z</time>
      </trkpt>
      <trkpt lat="46.02356" lon="4.45636">
        <ele>607</ele>
        <time>2019-06-28T17:23:51Z</time>
      </trkpt>
      <trkpt lat="46.02367" lon="4.45619">
        <ele>609</ele>
        <time>2019-06-28T17:23:55Z</time>
      </trkpt>
      <trkpt lat="46.02385" lon="4.45579">
        <ele>615</ele>
        <time>2019-06-28T17:24:03Z</time>
      </trkpt>
      <trkpt lat="46.02393" lon="4.455">
        <ele>625</ele>
        <time>2019-06-28T17:24:16Z</time>
      </trkpt>
      <trkpt lat="46.02389" lon="4.45496">
        <ele>625</ele>
        <time>2019-06-28T17:24:17Z</time>
      </trkpt>
      <trkpt lat="46.02405" lon="4.45476">
        <ele>625</ele>
        <time>2019-06-28T17:24:22Z</time>
      </trkpt>
      <trkpt lat="46.02415" lon="4.45454">
        <ele>624</ele>
        <time>2019-06-28T17:24:26Z</time>
      </trkpt>
      <trkpt lat="46.02421" lon="4.45433">
        <ele>623</ele>
        <time>2019-06-28T17:24:30Z</time>
      </trkpt>
      <trkpt lat="46.02424" lon="4.45407">
        <ele>623</ele>
        <time>2019-06-28T17:24:34Z</time>
      </trkpt>
      <trkpt lat="46.02423" lon="4.4536">
        <ele>624</ele>
        <time>2019-06-28T17:24:41Z</time>
      </trkpt>
      <trkpt lat="46.02416" lon="4.4533">
        <ele>625</ele>
        <time>2019-06-28T17:24:47Z</time>
      </trkpt>
      <trkpt lat="46.02402" lon="4.45306">
        <ele>625</ele>
        <time>2019-06-28T17:24:52Z</time>
      </trkpt>
      <trkpt lat="46.02396" lon="4.45288">
        <ele>624</ele>
        <time>2019-06-28T17:24:55Z</time>
      </trkpt>
      <trkpt lat="46.02366" lon="4.45253">
        <ele>626</ele>
        <time>2019-06-28T17:25:04Z</time>
      </trkpt>
      <trkpt lat="46.02347" lon="4.45235">
        <ele>626</ele>
        <time>2019-06-28T17:25:09Z</time>
      </trkpt>
      <trkpt lat="46.02289" lon="4.45189">
        <ele>627</ele>
        <time>2019-06-28T17:25:25Z</time>
      </trkpt>
      <trkpt lat="46.02225" lon="4.45116">
        <ele>621</ele>
        <time>2019-06-28T17:25:44Z</time>
      </trkpt>
      <trkpt lat="46.02206" lon="4.45102">
        <ele>620</ele>
        <time>2019-06-28T17:25:49Z</time>
      </trkpt>
      <trkpt lat="46.02165" lon="4.45061">
        <ele>622</ele>
        <time>2019-06-28T17:26:00Z</time>
      </trkpt>
      <trkpt lat="46.02134" lon="4.45022">
        <ele>626</ele>
        <time>2019-06-28T17:26:10Z</time>
      </trkpt>
      <trkpt lat="46.02116" lon="4.44984">
        <ele>628</ele>
        <time>2019-06-28T17:26:17Z</time>
      </trkpt>
      <trkpt lat="46.02103" lon="4.44926">
        <ele>630</ele>
        <time>2019-06-28T17:26:27Z</time>
      </trkpt>
      <trkpt lat="46.02104" lon="4.44907">
        <ele>630</ele>
        <time>2019-06-28T17:26:30Z</time>
      </trkpt>
      <trkpt lat="46.02112" lon="4.44893">
        <ele>629</ele>
        <time>2019-06-28T17:26:33Z</time>
      </trkpt>
      <trkpt lat="46.0214" lon="4.44863">
        <ele>622</ele>
        <time>2019-06-28T17:26:42Z</time>
      </trkpt>
      <trkpt lat="46.02146" lon="4.4485">
        <ele>621</ele>
        <time>2019-06-28T17:26:44Z</time>
      </trkpt>
      <trkpt lat="46.02144" lon="4.44821">
        <ele>619</ele>
        <time>2019-06-28T17:26:49Z</time>
      </trkpt>
      <trkpt lat="46.02115" lon="4.4473">
        <ele>617</ele>
        <time>2019-06-28T17:27:05Z</time>
      </trkpt>
      <trkpt lat="46.02049" lon="4.44588">
        <ele>613</ele>
        <time>2019-06-28T17:27:33Z</time>
      </trkpt>
      <trkpt lat="46.02026" lon="4.4453">
        <ele>613</ele>
        <time>2019-06-28T17:27:44Z</time>
      </trkpt>
      <trkpt lat="46.02019" lon="4.44502">
        <ele>612</ele>
        <time>2019-06-28T17:27:48Z</time>
      </trkpt>
      <trkpt lat="46.02014" lon="4.44454">
        <ele>606</ele>
        <time>2019-06-28T17:27:56Z</time>
      </trkpt>
      <trkpt lat="46.02016" lon="4.44424">
        <ele>601</ele>
        <time>2019-06-28T17:28:01Z</time>
      </trkpt>
      <trkpt lat="46.02014" lon="4.44388">
        <ele>597</ele>
        <time>2019-06-28T17:28:07Z</time>
      </trkpt>
      <trkpt lat="46.02015" lon="4.44345">
        <ele>591</ele>
        <time>2019-06-28T17:28:14Z</time>
      </trkpt>
      <trkpt lat="46.02012" lon="4.44281">
        <ele>585</ele>
        <time>2019-06-28T17:28:24Z</time>
      </trkpt>
      <trkpt lat="46.02009" lon="4.44261">
        <ele>584</ele>
        <time>2019-06-28T17:28:28Z</time>
      </trkpt>
      <trkpt lat="46.0201" lon="4.44151">
        <ele>584</ele>
        <time>2019-06-28T17:28:46Z</time>
      </trkpt>
      <trkpt lat="46.02006" lon="4.4414">
        <ele>584</ele>
        <time>2019-06-28T17:28:48Z</time>
      </trkpt>
      <trkpt lat="46.01998" lon="4.44131">
        <ele>584</ele>
        <time>2019-06-28T17:28:50Z</time>
      </trkpt>
      <trkpt lat="46.01996" lon="4.44111">
        <ele>584</ele>
        <time>2019-06-28T17:28:53Z</time>
      </trkpt>
      <trkpt lat="46.01973" lon="4.44099">
        <ele>588</ele>
        <time>2019-06-28T17:28:59Z</time>
      </trkpt>
      <trkpt lat="46.01952" lon="4.44071">
        <ele>590</ele>
        <time>2019-06-28T17:29:06Z</time>
      </trkpt>
      <trkpt lat="46.01926" lon="4.44063">
        <ele>593</ele>
        <time>2019-06-28T17:29:12Z</time>
      </trkpt>
      <trkpt lat="46.01906" lon="4.44054">
        <ele>595</ele>
        <time>2019-06-28T17:29:17Z</time>
      </trkpt>
      <trkpt lat="46.01868" lon="4.4403">
        <ele>602</ele>
        <time>2019-06-28T17:29:26Z</time>
      </trkpt>
      <trkpt lat="46.01827" lon="4.44011">
        <ele>609</ele>
        <time>2019-06-28T17:29:36Z</time>
      </trkpt>
      <trkpt lat="46.01779" lon="4.4398">
        <ele>621</ele>
        <time>2019-06-28T17:29:49Z</time>
      </trkpt>
      <trkpt lat="46.01715" lon="4.43944">
        <ele>635</ele>
        <time>2019-06-28T17:30:05Z</time>
      </trkpt>
      <trkpt lat="46.01687" lon="4.43939">
        <ele>638</ele>
        <time>2019-06-28T17:30:11Z</time>
      </trkpt>
      <trkpt lat="46.01673" lon="4.43928">
        <ele>640</ele>
        <time>2019-06-28T17:30:15Z</time>
      </trkpt>
      <trkpt lat="46.01659" lon="4.43925">
        <ele>641</ele>
        <time>2019-06-28T17:30:18Z</time>
      </trkpt>
      <trkpt lat="46.01649" lon="4.43932">
        <ele>642</ele>
        <time>2019-06-28T17:30:21Z</time>
      </trkpt>
      <trkpt lat="46.01657" lon="4.43995">
        <ele>640</ele>
        <time>2019-06-28T17:30:31Z</time>
      </trkpt>
      <trkpt lat="46.01648" lon="4.44041">
        <ele>638</ele>
        <time>2019-06-28T17:30:39Z</time>
      </trkpt>
      <trkpt lat="46.01634" lon="4.44073">
        <ele>637</ele>
        <time>2019-06-28T17:30:45Z</time>
      </trkpt>
      <trkpt lat="46.01613" lon="4.44112">
        <ele>636</ele>
        <time>2019-06-28T17:30:53Z</time>
      </trkpt>
      <trkpt lat="46.01602" lon="4.44083">
        <ele>637</ele>
        <time>2019-06-28T17:30:59Z</time>
      </trkpt>
      <trkpt lat="46.01584" lon="4.44056">
        <ele>639</ele>
        <time>2019-06-28T17:31:05Z</time>
      </trkpt>
      <trkpt lat="46.01565" lon="4.44011">
        <ele>643</ele>
        <time>2019-06-28T17:31:13Z</time>
      </trkpt>
      <trkpt lat="46.01554" lon="4.43968">
        <ele>648</ele>
        <time>2019-06-28T17:31:21Z</time>
      </trkpt>
      <trkpt lat="46.01545" lon="4.43953">
        <ele>651</ele>
        <time>2019-06-28T17:31:24Z</time>
      </trkpt>
      <trkpt lat="46.01527" lon="4.43942">
        <ele>655</ele>
        <time>2019-06-28T17:31:28Z</time>
      </trkpt>
      <trkpt lat="46.01507" lon="4.43946">
        <ele>657</ele>
        <time>2019-06-28T17:31:33Z</time>
      </trkpt>
      <trkpt lat="46.01466" lon="4.43937">
        <ele>664</ele>
        <time>2019-06-28T17:31:43Z</time>
      </trkpt>
      <trkpt lat="46.01454" lon="4.43928">
        <ele>668</ele>
        <time>2019-06-28T17:31:46Z</time>
      </trkpt>
      <trkpt lat="46.01442" lon="4.43907">
        <ele>672</ele>
        <time>2019-06-28T17:31:50Z</time>
      </trkpt>
      <trkpt lat="46.01435" lon="4.43865">
        <ele>676</ele>
        <time>2019-06-28T17:31:57Z</time>
      </trkpt>
      <trkpt lat="46.01432" lon="4.43812">
        <ele>680</ele>
        <time>2019-06-28T17:32:06Z</time>
      </trkpt>
      <trkpt lat="46.01447" lon="4.43766">
        <ele>682</ele>
        <time>2019-06-28T17:32:14Z</time>
      </trkpt>
      <trkpt lat="46.01441" lon="4.43756">
        <ele>684</ele>
        <time>2019-06-28T17:32:16Z</time>
      </trkpt>
      <trkpt lat="46.01438" lon="4.43725">
        <ele>687</ele>
        <time>2019-06-28T17:32:22Z</time>
      </trkpt>
      <trkpt lat="46.0143" lon="4.43694">
        <ele>690</ele>
        <time>2019-06-28T17:32:27Z</time>
      </trkpt>
      <trkpt lat="46.01421" lon="4.43627">
        <ele>696</ele>
        <time>2019-06-28T17:32:38Z</time>
      </trkpt>
      <trkpt lat="46.01429" lon="4.43588">
        <ele>701</ele>
        <time>2019-06-28T17:32:45Z</time>
      </trkpt>
      <trkpt lat="46.01427" lon="4.43553">
        <ele>702</ele>
        <time>2019-06-28T17:32:50Z</time>
      </trkpt>
      <trkpt lat="46.01433" lon="4.43482">
        <ele>706</ele>
        <time>2019-06-28T17:33:02Z</time>
      </trkpt>
      <trkpt lat="46.01448" lon="4.43424">
        <ele>712</ele>
        <time>2019-06-28T17:33:12Z</time>
      </trkpt>
      <trkpt lat="46.01461" lon="4.43384">
        <ele>717</ele>
        <time>2019-06-28T17:33:19Z</time>
      </trkpt>
      <trkpt lat="46.01462" lon="4.4334">
        <ele>720</ele>
        <time>2019-06-28T17:33:26Z</time>
      </trkpt>
      <trkpt lat="46.01472" lon="4.43319">
        <ele>724</ele>
        <time>2019-06-28T17:33:30Z</time>
      </trkpt>
      <trkpt lat="46.01482" lon="4.43276">
        <ele>730</ele>
        <time>2019-06-28T17:33:38Z</time>
      </trkpt>
      <trkpt lat="46.01492" lon="4.43251">
        <ele>734</ele>
        <time>2019-06-28T17:33:42Z</time>
      </trkpt>
      <trkpt lat="46.01497" lon="4.43225">
        <ele>736</ele>
        <time>2019-06-28T17:33:47Z</time>
      </trkpt>
      <trkpt lat="46.0152" lon="4.43169">
        <ele>738</ele>
        <time>2019-06-28T17:33:57Z</time>
      </trkpt>
      <trkpt lat="46.01522" lon="4.4311">
        <ele>745</ele>
        <time>2019-06-28T17:34:07Z</time>
      </trkpt>
      <trkpt lat="46.0158" lon="4.43023">
        <ele>751</ele>
        <time>2019-06-28T17:34:26Z</time>
      </trkpt>
      <trkpt lat="46.01665" lon="4.42955">
        <ele>754</ele>
        <time>2019-06-28T17:34:49Z</time>
      </trkpt>
      <trkpt lat="46.01709" lon="4.42904">
        <ele>759</ele>
        <time>2019-06-28T17:35:02Z</time>
      </trkpt>
      <trkpt lat="46.01739" lon="4.42858">
        <ele>764</ele>
        <time>2019-06-28T17:35:13Z</time>
      </trkpt>
      <trkpt lat="46.0175" lon="4.42822">
        <ele>768</ele>
        <time>2019-06-28T17:35:19Z</time>
      </trkpt>
      <trkpt lat="46.01772" lon="4.42784">
        <ele>769</ele>
        <time>2019-06-28T17:35:27Z</time>
      </trkpt>
      <trkpt lat="46.01779" lon="4.4271">
        <ele>771</ele>
        <time>2019-06-28T17:35:39Z</time>
      </trkpt>
      <trkpt lat="46.01793" lon="4.42675">
        <ele>769</ele>
        <time>2019-06-28T17:35:46Z</time>
      </trkpt>
      <trkpt lat="46.01833" lon="4.42605">
        <ele>758</ele>
        <time>2019-06-28T17:36:00Z</time>
      </trkpt>
      <trkpt lat="46.01846" lon="4.4259">
        <ele>756</ele>
        <time>2019-06-28T17:36:04Z</time>
      </trkpt>
      <trkpt lat="46.01863" lon="4.42561">
        <ele>755</ele>
        <time>2019-06-28T17:36:10Z</time>
      </trkpt>
      <trkpt lat="46.01879" lon="4.42514">
        <ele>755</ele>
        <time>2019-06-28T17:36:19Z</time>
      </trkpt>
      <trkpt lat="46.01889" lon="4.42474">
        <ele>756</ele>
        <time>2019-06-28T17:36:26Z</time>
      </trkpt>
      <trkpt lat="46.01891" lon="4.42439">
        <ele>756</ele>
        <time>2019-06-28T17:36:31Z</time>
      </trkpt>
      <trkpt lat="46.01896" lon="4.42415">
        <ele>756</ele>
        <time>2019-06-28T17:36:35Z</time>
      </trkpt>
      <trkpt lat="46.01898" lon="4.42361">
        <ele>754</ele>
        <time>2019-06-28T17:36:44Z</time>
      </trkpt>
      <trkpt lat="46.01895" lon="4.42337">
        <ele>752</ele>
        <time>2019-06-28T17:36:48Z</time>
      </trkpt>
      <trkpt lat="46.01889" lon="4.42316">
        <ele>751</ele>
        <time>2019-06-28T17:36:52Z</time>
      </trkpt>
      <trkpt lat="46.01874" lon="4.42141">
        <ele>749</ele>
        <time>2019-06-28T17:37:20Z</time>
      </trkpt>
      <trkpt lat="46.0188" lon="4.42074">
        <ele>747</ele>
        <time>2019-06-28T17:37:31Z</time>
      </trkpt>
      <trkpt lat="46.01904" lon="4.42007">
        <ele>748</ele>
        <time>2019-06-28T17:37:44Z</time>
      </trkpt>
      <trkpt lat="46.01932" lon="4.41962">
        <ele>746</ele>
        <time>2019-06-28T17:37:53Z</time>
      </trkpt>
      <trkpt lat="46.02003" lon="4.41867">
        <ele>733</ele>
        <time>2019-06-28T17:38:16Z</time>
      </trkpt>
      <trkpt lat="46.02045" lon="4.41838">
        <ele>728</ele>
        <time>2019-06-28T17:38:27Z</time>
      </trkpt>
      <trkpt lat="46.0205" lon="4.41783">
        <ele>724</ele>
        <time>2019-06-28T17:38:36Z</time>
      </trkpt>
      <trkpt lat="46.02037" lon="4.41699">
        <ele>721</ele>
        <time>2019-06-28T17:38:50Z</time>
      </trkpt>
      <trkpt lat="46.02034" lon="4.41623">
        <ele>728</ele>
        <time>2019-06-28T17:39:02Z</time>
      </trkpt>
      <trkpt lat="46.02037" lon="4.41597">
        <ele>732</ele>
        <time>2019-06-28T17:39:07Z</time>
      </trkpt>
      <trkpt lat="46.02037" lon="4.41563">
        <ele>736</ele>
        <time>2019-06-28T17:39:12Z</time>
      </trkpt>
      <trkpt lat="46.02026" lon="4.41512">
        <ele>741</ele>
        <time>2019-06-28T17:39:21Z</time>
      </trkpt>
      <trkpt lat="46.02014" lon="4.41484">
        <ele>740</ele>
        <time>2019-06-28T17:39:26Z</time>
      </trkpt>
      <trkpt lat="46.01998" lon="4.41457">
        <ele>738</ele>
        <time>2019-06-28T17:39:32Z</time>
      </trkpt>
      <trkpt lat="46.01967" lon="4.41388">
        <ele>729</ele>
        <time>2019-06-28T17:39:45Z</time>
      </trkpt>
      <trkpt lat="46.01951" lon="4.41341">
        <ele>727</ele>
        <time>2019-06-28T17:39:54Z</time>
      </trkpt>
      <trkpt lat="46.01935" lon="4.41282">
        <ele>721</ele>
        <time>2019-06-28T17:40:04Z</time>
      </trkpt>
      <trkpt lat="46.01925" lon="4.41272">
        <ele>719</ele>
        <time>2019-06-28T17:40:07Z</time>
      </trkpt>
      <trkpt lat="46.01916" lon="4.41267">
        <ele>718</ele>
        <time>2019-06-28T17:40:09Z</time>
      </trkpt>
      <trkpt lat="46.01902" lon="4.41266">
        <ele>714</ele>
        <time>2019-06-28T17:40:12Z</time>
      </trkpt>
      <trkpt lat="46.01835" lon="4.41197">
        <ele>697</ele>
        <time>2019-06-28T17:40:32Z</time>
      </trkpt>
      <trkpt lat="46.0181" lon="4.41124">
        <ele>692</ele>
        <time>2019-06-28T17:40:45Z</time>
      </trkpt>
      <trkpt lat="46.01791" lon="4.41083">
        <ele>688</ele>
        <time>2019-06-28T17:40:53Z</time>
      </trkpt>
      <trkpt lat="46.01781" lon="4.41085">
        <ele>687</ele>
        <time>2019-06-28T17:40:55Z</time>
      </trkpt>
      <trkpt lat="46.01768" lon="4.41068">
        <ele>684</ele>
        <time>2019-06-28T17:40:59Z</time>
      </trkpt>
      <trkpt lat="46.0174" lon="4.40978">
        <ele>684</ele>
        <time>2019-06-28T17:41:15Z</time>
      </trkpt>
      <trkpt lat="46.01694" lon="4.40864">
        <ele>689</ele>
        <time>2019-06-28T17:41:37Z</time>
      </trkpt>
      <trkpt lat="46.01673" lon="4.40839">
        <ele>691</ele>
        <time>2019-06-28T17:41:43Z</time>
      </trkpt>
      <trkpt lat="46.01659" lon="4.40817">
        <ele>691</ele>
        <time>2019-06-28T17:41:48Z</time>
      </trkpt>
      <trkpt lat="46.01629" lon="4.40723">
        <ele>689</ele>
        <time>2019-06-28T17:42:05Z</time>
      </trkpt>
      <trkpt lat="46.01616" lon="4.40673">
        <ele>687</ele>
        <time>2019-06-28T17:42:13Z</time>
      </trkpt>
      <trkpt lat="46.01572" lon="4.40629">
        <ele>683</ele>
        <time>2019-06-28T17:42:26Z</time>
      </trkpt>
      <trkpt lat="46.0155" lon="4.40598">
        <ele>680</ele>
        <time>2019-06-28T17:42:33Z</time>
      </trkpt>
      <trkpt lat="46.01524" lon="4.40544">
        <ele>678</ele>
        <time>2019-06-28T17:42:44Z</time>
      </trkpt>
      <trkpt lat="46.01472" lon="4.4047">
        <ele>675</ele>
        <time>2019-06-28T17:43:01Z</time>
      </trkpt>
      <trkpt lat="46.01443" lon="4.40443">
        <ele>671</ele>
        <time>2019-06-28T17:43:09Z</time>
      </trkpt>
      <trkpt lat="46.01422" lon="4.40404">
        <ele>669</ele>
        <time>2019-06-28T17:43:17Z</time>
      </trkpt>
      <trkpt lat="46.01402" lon="4.40388">
        <ele>666</ele>
        <time>2019-06-28T17:43:22Z</time>
      </trkpt>
      <trkpt lat="46.01375" lon="4.4029">
        <ele>664</ele>
        <time>2019-06-28T17:43:39Z</time>
      </trkpt>
      <trkpt lat="46.0136" lon="4.40262">
        <ele>663</ele>
        <time>2019-06-28T17:43:45Z</time>
      </trkpt>
      <trkpt lat="46.0135" lon="4.40235">
        <ele>661</ele>
        <time>2019-06-28T17:43:50Z</time>
      </trkpt>
      <trkpt lat="46.01328" lon="4.4014">
        <ele>656</ele>
        <time>2019-06-28T17:44:06Z</time>
      </trkpt>
      <trkpt lat="46.01331" lon="4.40057">
        <ele>651</ele>
        <time>2019-06-28T17:44:20Z</time>
      </trkpt>
      <trkpt lat="46.01329" lon="4.40021">
        <ele>649</ele>
        <time>2019-06-28T17:44:25Z</time>
      </trkpt>
      <trkpt lat="46.01323" lon="4.4">
        <ele>647</ele>
        <time>2019-06-28T17:44:29Z</time>
      </trkpt>
      <trkpt lat="46.01253" lon="4.39919">
        <ele>639</ele>
        <time>2019-06-28T17:44:50Z</time>
      </trkpt>
      <trkpt lat="46.01227" lon="4.399">
        <ele>636</ele>
        <time>2019-06-28T17:44:57Z</time>
      </trkpt>
      <trkpt lat="46.01185" lon="4.39852">
        <ele>629</ele>
        <time>2019-06-28T17:45:09Z</time>
      </trkpt>
      <trkpt lat="46.01171" lon="4.3984">
        <ele>626</ele>
        <time>2019-06-28T17:45:13Z</time>
      </trkpt>
      <trkpt lat="46.01161" lon="4.39839">
        <ele>624</ele>
        <time>2019-06-28T17:45:16Z</time>
      </trkpt>
      <trkpt lat="46.01149" lon="4.39802">
        <ele>622</ele>
        <time>2019-06-28T17:45:22Z</time>
      </trkpt>
      <trkpt lat="46.01139" lon="4.39793">
        <ele>620</ele>
        <time>2019-06-28T17:45:25Z</time>
      </trkpt>
      <trkpt lat="46.01112" lon="4.39791">
        <ele>617</ele>
        <time>2019-06-28T17:45:31Z</time>
      </trkpt>
      <trkpt lat="46.01039" lon="4.39761">
        <ele>612</ele>
        <time>2019-06-28T17:45:49Z</time>
      </trkpt>
      <trkpt lat="46.01011" lon="4.39736">
        <ele>610</ele>
        <time>2019-06-28T17:45:57Z</time>
      </trkpt>
      <trkpt lat="46.00928" lon="4.39624">
        <ele>602</ele>
        <time>2019-06-28T17:46:23Z</time>
      </trkpt>
      <trkpt lat="46.00895" lon="4.39536">
        <ele>599</ele>
        <time>2019-06-28T17:46:39Z</time>
      </trkpt>
      <trkpt lat="46.00881" lon="4.39434">
        <ele>592</ele>
        <time>2019-06-28T17:46:56Z</time>
      </trkpt>
      <trkpt lat="46.00799" lon="4.39222">
        <ele>586</ele>
        <time>2019-06-28T17:47:36Z</time>
      </trkpt>
      <trkpt lat="46.00786" lon="4.39146">
        <ele>583</ele>
        <time>2019-06-28T17:47:48Z</time>
      </trkpt>
      <trkpt lat="46.00731" lon="4.39027">
        <ele>573</ele>
        <time>2019-06-28T17:48:12Z</time>
      </trkpt>
      <trkpt lat="46.00665" lon="4.38908">
        <ele>560</ele>
        <time>2019-06-28T17:48:36Z</time>
      </trkpt>
      <trkpt lat="46.00649" lon="4.38864">
        <ele>557</ele>
        <time>2019-06-28T17:48:44Z</time>
      </trkpt>
      <trkpt lat="46.00636" lon="4.38847">
        <ele>556</ele>
        <time>2019-06-28T17:48:48Z</time>
      </trkpt>
      <trkpt lat="46.00624" lon="4.38839">
        <ele>556</ele>
        <time>2019-06-28T17:48:51Z</time>
      </trkpt>
      <trkpt lat="46.00601" lon="4.38831">
        <ele>556</ele>
        <time>2019-06-28T17:48:57Z</time>
      </trkpt>
      <trkpt lat="46.00587" lon="4.38828">
        <ele>556</ele>
        <time>2019-06-28T17:49:00Z</time>
      </trkpt>
      <trkpt lat="46.0053" lon="4.38829">
        <ele>551</ele>
        <time>2019-06-28T17:49:14Z</time>
      </trkpt>
      <trkpt lat="46.00515" lon="4.38826">
        <ele>550</ele>
        <time>2019-06-28T17:49:17Z</time>
      </trkpt>
      <trkpt lat="46.00502" lon="4.38818">
        <ele>549</ele>
        <time>2019-06-28T17:49:20Z</time>
      </trkpt>
      <trkpt lat="46.0052" lon="4.38761">
        <ele>551</ele>
        <time>2019-06-28T17:49:31Z</time>
      </trkpt>
      <trkpt lat="46.00546" lon="4.38705">
        <ele>548</ele>
        <time>2019-06-28T17:49:42Z</time>
      </trkpt>
      <trkpt lat="46.00606" lon="4.38622">
        <ele>537</ele>
        <time>2019-06-28T17:50:01Z</time>
      </trkpt>
      <trkpt lat="46.00635" lon="4.38596">
        <ele>533</ele>
        <time>2019-06-28T17:50:09Z</time>
      </trkpt>
      <trkpt lat="46.0065" lon="4.38586">
        <ele>531</ele>
        <time>2019-06-28T17:50:13Z</time>
      </trkpt>
      <trkpt lat="46.00667" lon="4.38558">
        <ele>529</ele>
        <time>2019-06-28T17:50:19Z</time>
      </trkpt>
      <trkpt lat="46.00672" lon="4.38533">
        <ele>528</ele>
        <time>2019-06-28T17:50:23Z</time>
      </trkpt>
      <trkpt lat="46.00669" lon="4.38493">
        <ele>525</ele>
        <time>2019-06-28T17:50:30Z</time>
      </trkpt>
      <trkpt lat="46.0067" lon="4.38438">
        <ele>522</ele>
        <time>2019-06-28T17:50:39Z</time>
      </trkpt>
      <trkpt lat="46.00676" lon="4.38377">
        <ele>519</ele>
        <time>2019-06-28T17:50:49Z</time>
      </trkpt>
      <trkpt lat="46.00676" lon="4.38317">
        <ele>517</ele>
        <time>2019-06-28T17:50:58Z</time>
      </trkpt>
      <trkpt lat="46.00658" lon="4.38232">
        <ele>520</ele>
        <time>2019-06-28T17:51:13Z</time>
      </trkpt>
      <trkpt lat="46.00688" lon="4.3818">
        <ele>525</ele>
        <time>2019-06-28T17:51:24Z</time>
      </trkpt>
      <trkpt lat="46.00713" lon="4.38193">
        <ele>520</ele>
        <time>2019-06-28T17:51:30Z</time>
      </trkpt>
      <trkpt lat="46.00721" lon="4.38207">
        <ele>517</ele>
        <time>2019-06-28T17:51:33Z</time>
      </trkpt>
      <trkpt lat="46.00734" lon="4.38205">
        <ele>516</ele>
        <time>2019-06-28T17:51:36Z</time>
      </trkpt>
      <trkpt lat="46.00755" lon="4.38211">
        <ele>512</ele>
        <time>2019-06-28T17:51:41Z</time>
      </trkpt>
      <trkpt lat="46.00772" lon="4.38197">
        <ele>511</ele>
        <time>2019-06-28T17:51:45Z</time>
      </trkpt>
      <trkpt lat="46.00787" lon="4.38191">
        <ele>509</ele>
        <time>2019-06-28T17:51:49Z</time>
      </trkpt>
      <trkpt lat="46.00798" lon="4.3821">
        <ele>506</ele>
        <time>2019-06-28T17:51:53Z</time>
      </trkpt>
      <trkpt lat="46.0084" lon="4.3816">
        <ele>501</ele>
        <time>2019-06-28T17:52:06Z</time>
      </trkpt>
      <trkpt lat="46.00879" lon="4.3812">
        <ele>490</ele>
        <time>2019-06-28T17:52:17Z</time>
      </trkpt>
      <trkpt lat="46.00889" lon="4.38124">
        <ele>487</ele>
        <time>2019-06-28T17:52:19Z</time>
      </trkpt>
      <trkpt lat="46.00896" lon="4.38114">
        <ele>485</ele>
        <time>2019-06-28T17:52:22Z</time>
      </trkpt>
      <trkpt lat="46.00917" lon="4.38123">
        <ele>479</ele>
        <time>2019-06-28T17:52:27Z</time>
      </trkpt>
      <trkpt lat="46.00968" lon="4.38066">
        <ele>467</ele>
        <time>2019-06-28T17:52:42Z</time>
      </trkpt>
      <trkpt lat="46.00974" lon="4.38053">
        <ele>464</ele>
        <time>2019-06-28T17:52:44Z</time>
      </trkpt>
      <trkpt lat="46.0096" lon="4.38033">
        <ele>464</ele>
        <time>2019-06-28T17:52:49Z</time>
      </trkpt>
      <trkpt lat="46.00932" lon="4.38004">
        <ele>467</ele>
        <time>2019-06-28T17:52:57Z</time>
      </trkpt>
      <trkpt lat="46.00914" lon="4.37958">
        <ele>465</ele>
        <time>2019-06-28T17:53:06Z</time>
      </trkpt>
      <trkpt lat="46.00873" lon="4.37824">
        <ele>460</ele>
        <time>2019-06-28T17:53:29Z</time>
      </trkpt>
      <trkpt lat="46.00857" lon="4.37783">
        <ele>460</ele>
        <time>2019-06-28T17:53:37Z</time>
      </trkpt>
      <trkpt lat="46.00841" lon="4.37755">
        <ele>460</ele>
        <time>2019-06-28T17:53:43Z</time>
      </trkpt>
      <trkpt lat="46.00803" lon="4.37675">
        <ele>460</ele>
        <time>2019-06-28T17:53:59Z</time>
      </trkpt>
      <trkpt lat="46.00732" lon="4.37536">
        <ele>460</ele>
        <time>2019-06-28T17:54:27Z</time>
      </trkpt>
      <trkpt lat="46.00651" lon="4.37323">
        <ele>453</ele>
        <time>2019-06-28T17:55:06Z</time>
      </trkpt>
      <trkpt lat="46.00591" lon="4.37207">
        <ele>455</ele>
        <time>2019-06-28T17:55:29Z</time>
      </trkpt>
      <trkpt lat="46.00578" lon="4.3714">
        <ele>451</ele>
        <time>2019-06-28T17:55:41Z</time>
      </trkpt>
      <trkpt lat="46.00576" lon="4.371">
        <ele>450</ele>
        <time>2019-06-28T17:55:47Z</time>
      </trkpt>
      <trkpt lat="46.00579" lon="4.37069">
        <ele>449</ele>
        <time>2019-06-28T17:55:52Z</time>
      </trkpt>
      <trkpt lat="46.00564" lon="4.37001">
        <ele>451</ele>
        <time>2019-06-28T17:56:04Z</time>
      </trkpt>
      <trkpt lat="46.00551" lon="4.36891">
        <ele>448</ele>
        <time>2019-06-28T17:56:22Z</time>
      </trkpt>
      <trkpt lat="46.0055" lon="4.36857">
        <ele>447</ele>
        <time>2019-06-28T17:56:28Z</time>
      </trkpt>
      <trkpt lat="46.00545" lon="4.36843">
        <ele>447</ele>
        <time>2019-06-28T17:56:30Z</time>
      </trkpt>
      <trkpt lat="46.00504" lon="4.36839">
        <ele>450</ele>
        <time>2019-06-28T17:56:40Z</time>
      </trkpt>
      <trkpt lat="46.00474" lon="4.36839">
        <ele>449</ele>
        <time>2019-06-28T17:56:47Z</time>
      </trkpt>
      <trkpt lat="46.0046" lon="4.36845">
        <ele>448</ele>
        <time>2019-06-28T17:56:50Z</time>
      </trkpt>
      <trkpt lat="46.00444" lon="4.36871">
        <ele>447</ele>
        <time>2019-06-28T17:56:56Z</time>
      </trkpt>
      <trkpt lat="46.00433" lon="4.36968">
        <ele>447</ele>
        <time>2019-06-28T17:57:12Z</time>
      </trkpt>
      <trkpt lat="46.00404" lon="4.37039">
        <ele>447</ele>
        <time>2019-06-28T17:57:25Z</time>
      </trkpt>
      <trkpt lat="46.00396" lon="4.37035">
        <ele>448</ele>
        <time>2019-06-28T17:57:27Z</time>
      </trkpt>
      <trkpt lat="46.00369" lon="4.36951">
        <ele>447</ele>
        <time>2019-06-28T17:57:42Z</time>
      </trkpt>
      <trkpt lat="46.00356" lon="4.36919">
        <ele>449</ele>
        <time>2019-06-28T17:57:48Z</time>
      </trkpt>
      <trkpt lat="46.00316" lon="4.36968">
        <ele>456</ele>
        <time>2019-06-28T17:58:00Z</time>
      </trkpt>
      <trkpt lat="46.00302" lon="4.36991">
        <ele>461</ele>
        <time>2019-06-28T17:58:05Z</time>
      </trkpt>
      <trkpt lat="46.00296" lon="4.37146">
        <ele>482</ele>
        <time>2019-06-28T17:58:30Z</time>
      </trkpt>
      <trkpt lat="46.00284" lon="4.37276">
        <ele>483</ele>
        <time>2019-06-28T17:58:52Z</time>
      </trkpt>
      <trkpt lat="46.00263" lon="4.37316">
        <ele>485</ele>
        <time>2019-06-28T17:59:00Z</time>
      </trkpt>
      <trkpt lat="46.00202" lon="4.3734">
        <ele>487</ele>
        <time>2019-06-28T17:59:15Z</time>
      </trkpt>
      <trkpt lat="46.0017" lon="4.3735">
        <ele>487</ele>
        <time>2019-06-28T17:59:22Z</time>
      </trkpt>
      <trkpt lat="46.00118" lon="4.37419">
        <ele>477</ele>
        <time>2019-06-28T17:59:39Z</time>
      </trkpt>
      <trkpt lat="46.00049" lon="4.37397">
        <ele>487</ele>
        <time>2019-06-28T17:59:55Z</time>
      </trkpt>
      <trkpt lat="46.00013" lon="4.3742">
        <ele>490</ele>
        <time>2019-06-28T18:00:04Z</time>
      </trkpt>
      <trkpt lat="45.99995" lon="4.37425">
        <ele>492</ele>
        <time>2019-06-28T18:00:09Z</time>
      </trkpt>
      <trkpt lat="45.99928" lon="4.37476">
        <ele>493</ele>
        <time>2019-06-28T18:00:26Z</time>
      </trkpt>
      <trkpt lat="45.99847" lon="4.37585">
        <ele>506</ele>
        <time>2019-06-28T18:00:52Z</time>
      </trkpt>
      <trkpt lat="45.9952" lon="4.37508">
        <ele>522</ele>
        <time>2019-06-28T18:02:10Z</time>
      </trkpt>
      <trkpt lat="45.99475" lon="4.3756">
        <ele>521</ele>
        <time>2019-06-28T18:02:23Z</time>
      </trkpt>
      <trkpt lat="45.9947" lon="4.37636">
        <ele>520</ele>
        <time>2019-06-28T18:02:36Z</time>
      </trkpt>
      <trkpt lat="45.99488" lon="4.37661">
        <ele>519</ele>
        <time>2019-06-28T18:02:41Z</time>
      </trkpt>
      <trkpt lat="45.9949" lon="4.3771">
        <ele>520</ele>
        <time>2019-06-28T18:02:49Z</time>
      </trkpt>
      <trkpt lat="45.9948" lon="4.37734">
        <ele>521</ele>
        <time>2019-06-28T18:02:54Z</time>
      </trkpt>
      <trkpt lat="45.99455" lon="4.37842">
        <ele>528</ele>
        <time>2019-06-28T18:03:12Z</time>
      </trkpt>
      <trkpt lat="45.99417" lon="4.37972">
        <ele>539</ele>
        <time>2019-06-28T18:03:35Z</time>
      </trkpt>
      <trkpt lat="45.99388" lon="4.38015">
        <ele>541</ele>
        <time>2019-06-28T18:03:45Z</time>
      </trkpt>
      <trkpt lat="45.99346" lon="4.38044">
        <ele>545</ele>
        <time>2019-06-28T18:03:56Z</time>
      </trkpt>
      <trkpt lat="45.99237" lon="4.38257">
        <ele>559</ele>
        <time>2019-06-28T18:04:39Z</time>
      </trkpt>
      <trkpt lat="45.99231" lon="4.38279">
        <ele>558</ele>
        <time>2019-06-28T18:04:43Z</time>
      </trkpt>
      <trkpt lat="45.99216" lon="4.38311">
        <ele>558</ele>
        <time>2019-06-28T18:04:49Z</time>
      </trkpt>
      <trkpt lat="45.9919" lon="4.38317">
        <ele>559</ele>
        <time>2019-06-28T18:04:55Z</time>
      </trkpt>
      <trkpt lat="45.99146" lon="4.38404">
        <ele>560</ele>
        <time>2019-06-28T18:05:13Z</time>
      </trkpt>
      <trkpt lat="45.99132" lon="4.38423">
        <ele>558</ele>
        <time>2019-06-28T18:05:17Z</time>
      </trkpt>
      <trkpt lat="45.99115" lon="4.38492">
        <ele>558</ele>
        <time>2019-06-28T18:05:29Z</time>
      </trkpt>
      <trkpt lat="45.99108" lon="4.38509">
        <ele>558</ele>
        <time>2019-06-28T18:05:32Z</time>
      </trkpt>
      <trkpt lat="45.99108" lon="4.38561">
        <ele>558</ele>
        <time>2019-06-28T18:05:41Z</time>
      </trkpt>
      <trkpt lat="45.9908" lon="4.386">
        <ele>556</ele>
        <time>2019-06-28T18:05:50Z</time>
      </trkpt>
      <trkpt lat="45.99063" lon="4.3864">
        <ele>558</ele>
        <time>2019-06-28T18:05:57Z</time>
      </trkpt>
      <trkpt lat="45.99039" lon="4.38714">
        <ele>562</ele>
        <time>2019-06-28T18:06:10Z</time>
      </trkpt>
      <trkpt lat="45.99015" lon="4.3877">
        <ele>564</ele>
        <time>2019-06-28T18:06:21Z</time>
      </trkpt>
      <trkpt lat="45.98992" lon="4.38798">
        <ele>565</ele>
        <time>2019-06-28T18:06:28Z</time>
      </trkpt>
      <trkpt lat="45.98974" lon="4.38803">
        <ele>567</ele>
        <time>2019-06-28T18:06:32Z</time>
      </trkpt>
      <trkpt lat="45.98961" lon="4.38796">
        <ele>567</ele>
        <time>2019-06-28T18:06:36Z</time>
      </trkpt>
      <trkpt lat="45.98956" lon="4.38782">
        <ele>567</ele>
        <time>2019-06-28T18:06:38Z</time>
      </trkpt>
      <trkpt lat="45.98959" lon="4.38753">
        <ele>565</ele>
        <time>2019-06-28T18:06:43Z</time>
      </trkpt>
      <trkpt lat="45.9893" lon="4.38768">
        <ele>569</ele>
        <time>2019-06-28T18:06:50Z</time>
      </trkpt>
      <trkpt lat="45.98914" lon="4.38766">
        <ele>571</ele>
        <time>2019-06-28T18:06:54Z</time>
      </trkpt>
      <trkpt lat="45.98842" lon="4.38767">
        <ele>580</ele>
        <time>2019-06-28T18:07:11Z</time>
      </trkpt>
      <trkpt lat="45.98824" lon="4.38771">
        <ele>581</ele>
        <time>2019-06-28T18:07:15Z</time>
      </trkpt>
      <trkpt lat="45.98806" lon="4.38811">
        <ele>584</ele>
        <time>2019-06-28T18:07:23Z</time>
      </trkpt>
      <trkpt lat="45.98799" lon="4.38866">
        <ele>587</ele>
        <time>2019-06-28T18:07:32Z</time>
      </trkpt>
      <trkpt lat="45.98781" lon="4.38855">
        <ele>586</ele>
        <time>2019-06-28T18:07:36Z</time>
      </trkpt>
      <trkpt lat="45.98722" lon="4.38777">
        <ele>574</ele>
        <time>2019-06-28T18:07:55Z</time>
      </trkpt>
      <trkpt lat="45.98578" lon="4.38876">
        <ele>562</ele>
        <time>2019-06-28T18:08:32Z</time>
      </trkpt>
      <trkpt lat="45.98556" lon="4.38869">
        <ele>562</ele>
        <time>2019-06-28T18:08:38Z</time>
      </trkpt>
      <trkpt lat="45.98523" lon="4.38831">
        <ele>560</ele>
        <time>2019-06-28T18:08:48Z</time>
      </trkpt>
      <trkpt lat="45.98479" lon="4.38747">
        <ele>559</ele>
        <time>2019-06-28T18:09:05Z</time>
      </trkpt>
      <trkpt lat="45.98413" lon="4.38584">
        <ele>564</ele>
        <time>2019-06-28T18:09:35Z</time>
      </trkpt>
      <trkpt lat="45.98415" lon="4.38711">
        <ele>566</ele>
        <time>2019-06-28T18:09:56Z</time>
      </trkpt>
      <trkpt lat="45.98412" lon="4.38832">
        <ele>572</ele>
        <time>2019-06-28T18:10:15Z</time>
      </trkpt>
      <trkpt lat="45.98373" lon="4.38853">
        <ele>577</ele>
        <time>2019-06-28T18:10:25Z</time>
      </trkpt>
      <trkpt lat="45.98265" lon="4.3896">
        <ele>591</ele>
        <time>2019-06-28T18:10:56Z</time>
      </trkpt>
      <trkpt lat="45.98246" lon="4.38985">
        <ele>593</ele>
        <time>2019-06-28T18:11:02Z</time>
      </trkpt>
      <trkpt lat="45.98231" lon="4.39174">
        <ele>609</ele>
        <time>2019-06-28T18:11:33Z</time>
      </trkpt>
      <trkpt lat="45.98198" lon="4.39327">
        <ele>631</ele>
        <time>2019-06-28T18:11:59Z</time>
      </trkpt>
      <trkpt lat="45.98181" lon="4.39343">
        <ele>636</ele>
        <time>2019-06-28T18:12:03Z</time>
      </trkpt>
      <trkpt lat="45.98139" lon="4.394">
        <ele>647</ele>
        <time>2019-06-28T18:12:17Z</time>
      </trkpt>
      <trkpt lat="45.9812" lon="4.39438">
        <ele>653</ele>
        <time>2019-06-28T18:12:25Z</time>
      </trkpt>
      <trkpt lat="45.98117" lon="4.39504">
        <ele>661</ele>
        <time>2019-06-28T18:12:35Z</time>
      </trkpt>
      <trkpt lat="45.98125" lon="4.39518">
        <ele>663</ele>
        <time>2019-06-28T18:12:38Z</time>
      </trkpt>
      <trkpt lat="45.98107" lon="4.39527">
        <ele>666</ele>
        <time>2019-06-28T18:12:43Z</time>
      </trkpt>
      <trkpt lat="45.98095" lon="4.39539">
        <ele>669</ele>
        <time>2019-06-28T18:12:46Z</time>
      </trkpt>
      <trkpt lat="45.98021" lon="4.39593">
        <ele>680</ele>
        <time>2019-06-28T18:13:05Z</time>
      </trkpt>
      <trkpt lat="45.9801" lon="4.39622">
        <ele>684</ele>
        <time>2019-06-28T18:13:11Z</time>
      </trkpt>
      <trkpt lat="45.97994" lon="4.39678">
        <ele>690</ele>
        <time>2019-06-28T18:13:21Z</time>
      </trkpt>
      <trkpt lat="45.97981" lon="4.39783">
        <ele>702</ele>
        <time>2019-06-28T18:13:38Z</time>
      </trkpt>
      <trkpt lat="45.97997" lon="4.39838">
        <ele>711</ele>
        <time>2019-06-28T18:13:48Z</time>
      </trkpt>
      <trkpt lat="45.98045" lon="4.39878">
        <ele>717</ele>
        <time>2019-06-28T18:14:01Z</time>
      </trkpt>
      <trkpt lat="45.98065" lon="4.39944">
        <ele>724</ele>
        <time>2019-06-28T18:14:12Z</time>
      </trkpt>
      <trkpt lat="45.98066" lon="4.39968">
        <ele>726</ele>
        <time>2019-06-28T18:14:16Z</time>
      </trkpt>
      <trkpt lat="45.98082" lon="4.4006">
        <ele>739</ele>
        <time>2019-06-28T18:14:32Z</time>
      </trkpt>
      <trkpt lat="45.98039" lon="4.40114">
        <ele>736</ele>
        <time>2019-06-28T18:14:45Z</time>
      </trkpt>
      <trkpt lat="45.98012" lon="4.40139">
        <ele>733</ele>
        <time>2019-06-28T18:14:52Z</time>
      </trkpt>
      <trkpt lat="45.98003" lon="4.4016">
        <ele>733</ele>
        <time>2019-06-28T18:14:56Z</time>
      </trkpt>
      <trkpt lat="45.97988" lon="4.40179">
        <ele>737</ele>
        <time>2019-06-28T18:15:01Z</time>
      </trkpt>
      <trkpt lat="45.97977" lon="4.40183">
        <ele>739</ele>
        <time>2019-06-28T18:15:04Z</time>
      </trkpt>
      <trkpt lat="45.97944" lon="4.4016">
        <ele>740</ele>
        <time>2019-06-28T18:15:12Z</time>
      </trkpt>
      <trkpt lat="45.97932" lon="4.40134">
        <ele>740</ele>
        <time>2019-06-28T18:15:17Z</time>
      </trkpt>
      <trkpt lat="45.97923" lon="4.40105">
        <ele>739</ele>
        <time>2019-06-28T18:15:22Z</time>
      </trkpt>
      <trkpt lat="45.97894" lon="4.40064">
        <ele>736</ele>
        <time>2019-06-28T18:15:32Z</time>
      </trkpt>
      <trkpt lat="45.97875" lon="4.4005">
        <ele>735</ele>
        <time>2019-06-28T18:15:37Z</time>
      </trkpt>
      <trkpt lat="45.97864" lon="4.40109">
        <ele>740</ele>
        <time>2019-06-28T18:15:47Z</time>
      </trkpt>
      <trkpt lat="45.97822" lon="4.40198">
        <ele>743</ele>
        <time>2019-06-28T18:16:04Z</time>
      </trkpt>
      <trkpt lat="45.97795" lon="4.4025">
        <ele>747</ele>
        <time>2019-06-28T18:16:15Z</time>
      </trkpt>
      <trkpt lat="45.97772" lon="4.40279">
        <ele>749</ele>
        <time>2019-06-28T18:16:22Z</time>
      </trkpt>
      <trkpt lat="45.97749" lon="4.40325">
        <ele>754</ele>
        <time>2019-06-28T18:16:31Z</time>
      </trkpt>
      <trkpt lat="45.97589" lon="4.40614">
        <ele>762</ele>
        <time>2019-06-28T18:17:31Z</time>
      </trkpt>
      <trkpt lat="45.97575" lon="4.40655">
        <ele>764</ele>
        <time>2019-06-28T18:17:39Z</time>
      </trkpt>
      <trkpt lat="45.97566" lon="4.40737">
        <ele>762</ele>
        <time>2019-06-28T18:17:52Z</time>
      </trkpt>
      <trkpt lat="45.97585" lon="4.4086">
        <ele>768</ele>
        <time>2019-06-28T18:18:12Z</time>
      </trkpt>
      <trkpt lat="45.97594" lon="4.4087">
        <ele>772</ele>
        <time>2019-06-28T18:18:15Z</time>
      </trkpt>
      <trkpt lat="45.97608" lon="4.40906">
        <ele>778</ele>
        <time>2019-06-28T18:18:22Z</time>
      </trkpt>
      <trkpt lat="45.97615" lon="4.4098">
        <ele>786</ele>
        <time>2019-06-28T18:18:34Z</time>
      </trkpt>
      <trkpt lat="45.97627" lon="4.41031">
        <ele>795</ele>
        <time>2019-06-28T18:18:43Z</time>
      </trkpt>
      <trkpt lat="45.97642" lon="4.4107">
        <ele>801</ele>
        <time>2019-06-28T18:18:50Z</time>
      </trkpt>
      <trkpt lat="45.97665" lon="4.41148">
        <ele>803</ele>
        <time>2019-06-28T18:19:04Z</time>
      </trkpt>
      <trkpt lat="45.97678" lon="4.41175">
        <ele>805</ele>
        <time>2019-06-28T18:19:09Z</time>
      </trkpt>
      <trkpt lat="45.97742" lon="4.41284">
        <ele>813</ele>
        <time>2019-06-28T18:19:32Z</time>
      </trkpt>
      <trkpt lat="45.97777" lon="4.41324">
        <ele>812</ele>
        <time>2019-06-28T18:19:43Z</time>
      </trkpt>
      <trkpt lat="45.97806" lon="4.41343">
        <ele>810</ele>
        <time>2019-06-28T18:19:50Z</time>
      </trkpt>
      <trkpt lat="45.97827" lon="4.41353">
        <ele>809</ele>
        <time>2019-06-28T18:19:55Z</time>
      </trkpt>
      <trkpt lat="45.97854" lon="4.41372">
        <ele>805</ele>
        <time>2019-06-28T18:20:02Z</time>
      </trkpt>
      <trkpt lat="45.97912" lon="4.41389">
        <ele>804</ele>
        <time>2019-06-28T18:20:16Z</time>
      </trkpt>
      <trkpt lat="45.97951" lon="4.41413">
        <ele>803</ele>
        <time>2019-06-28T18:20:26Z</time>
      </trkpt>
      <trkpt lat="45.97977" lon="4.41437">
        <ele>803</ele>
        <time>2019-06-28T18:20:33Z</time>
      </trkpt>
      <trkpt lat="45.97992" lon="4.41465">
        <ele>803</ele>
        <time>2019-06-28T18:20:39Z</time>
      </trkpt>
      <trkpt lat="45.98004" lon="4.41497">
        <ele>803</ele>
        <time>2019-06-28T18:20:45Z</time>
      </trkpt>
      <trkpt lat="45.9801" lon="4.41523">
        <ele>803</ele>
        <time>2019-06-28T18:20:49Z</time>
      </trkpt>
      <trkpt lat="45.9801" lon="4.41539">
        <ele>803</ele>
        <time>2019-06-28T18:20:52Z</time>
      </trkpt>
      <trkpt lat="45.9803" lon="4.4163">
        <ele>803</ele>
        <time>2019-06-28T18:21:07Z</time>
      </trkpt>
      <trkpt lat="45.9803" lon="4.41665">
        <ele>802</ele>
        <time>2019-06-28T18:21:13Z</time>
      </trkpt>
      <trkpt lat="45.98038" lon="4.41685">
        <ele>802</ele>
        <time>2019-06-28T18:21:17Z</time>
      </trkpt>
      <trkpt lat="45.98037" lon="4.41721">
        <ele>800</ele>
        <time>2019-06-28T18:21:23Z</time>
      </trkpt>
      <trkpt lat="45.98049" lon="4.41804">
        <ele>799</ele>
        <time>2019-06-28T18:21:36Z</time>
      </trkpt>
      <trkpt lat="45.98064" lon="4.41857">
        <ele>800</ele>
        <time>2019-06-28T18:21:46Z</time>
      </trkpt>
      <trkpt lat="45.98132" lon="4.41903">
        <ele>807</ele>
        <time>2019-06-28T18:22:03Z</time>
      </trkpt>
      <trkpt lat="45.98138" lon="4.41924">
        <ele>808</ele>
        <time>2019-06-28T18:22:07Z</time>
      </trkpt>
      <trkpt lat="45.98145" lon="4.41968">
        <ele>805</ele>
        <time>2019-06-28T18:22:14Z</time>
      </trkpt>
      <trkpt lat="45.9816" lon="4.42024">
        <ele>805</ele>
        <time>2019-06-28T18:22:24Z</time>
      </trkpt>
      <trkpt lat="45.98187" lon="4.42092">
        <ele>803</ele>
        <time>2019-06-28T18:22:37Z</time>
      </trkpt>
      <trkpt lat="45.98216" lon="4.42135">
        <ele>799</ele>
        <time>2019-06-28T18:22:46Z</time>
      </trkpt>
      <trkpt lat="45.98249" lon="4.42165">
        <ele>798</ele>
        <time>2019-06-28T18:22:55Z</time>
      </trkpt>
      <trkpt lat="45.98318" lon="4.42191">
        <ele>798</ele>
        <time>2019-06-28T18:23:12Z</time>
      </trkpt>
      <trkpt lat="45.98422" lon="4.42284">
        <ele>800</ele>
        <time>2019-06-28T18:23:41Z</time>
      </trkpt>
      <trkpt lat="45.98445" lon="4.42302">
        <ele>801</ele>
        <time>2019-06-28T18:23:47Z</time>
      </trkpt>
      <trkpt lat="45.98488" lon="4.42323">
        <ele>805</ele>
        <time>2019-06-28T18:23:57Z</time>
      </trkpt>
      <trkpt lat="45.98457" lon="4.42331">
        <ele>799</ele>
        <time>2019-06-28T18:24:05Z</time>
      </trkpt>
      <trkpt lat="45.98372" lon="4.42342">
        <ele>788</ele>
        <time>2019-06-28T18:24:25Z</time>
      </trkpt>
      <trkpt lat="45.98395" lon="4.42361">
        <ele>784</ele>
        <time>2019-06-28T18:24:31Z</time>
      </trkpt>
      <trkpt lat="45.98463" lon="4.42387">
        <ele>786</ele>
        <time>2019-06-28T18:24:47Z</time>
      </trkpt>
      <trkpt lat="45.98551" lon="4.42471">
        <ele>787</ele>
        <time>2019-06-28T18:25:12Z</time>
      </trkpt>
      <trkpt lat="45.98595" lon="4.42481">
        <ele>790</ele>
        <time>2019-06-28T18:25:22Z</time>
      </trkpt>
      <trkpt lat="45.98674" lon="4.42452">
        <ele>784</ele>
        <time>2019-06-28T18:25:41Z</time>
      </trkpt>
      <trkpt lat="45.98681" lon="4.42455">
        <ele>784</ele>
        <time>2019-06-28T18:25:43Z</time>
      </trkpt>
      <trkpt lat="45.98698" lon="4.42478">
        <ele>782</ele>
        <time>2019-06-28T18:25:49Z</time>
      </trkpt>
      <trkpt lat="45.98741" lon="4.42492">
        <ele>779</ele>
        <time>2019-06-28T18:25:59Z</time>
      </trkpt>
      <trkpt lat="45.98775" lon="4.42543">
        <ele>777</ele>
        <time>2019-06-28T18:26:10Z</time>
      </trkpt>
      <trkpt lat="45.98782" lon="4.42574">
        <ele>775</ele>
        <time>2019-06-28T18:26:16Z</time>
      </trkpt>
      <trkpt lat="45.98777" lon="4.42621">
        <ele>771</ele>
        <time>2019-06-28T18:26:23Z</time>
      </trkpt>
      <trkpt lat="45.98767" lon="4.42661">
        <ele>767</ele>
        <time>2019-06-28T18:26:30Z</time>
      </trkpt>
      <trkpt lat="45.98761" lon="4.42858">
        <ele>761</ele>
        <time>2019-06-28T18:27:02Z</time>
      </trkpt>
      <trkpt lat="45.98764" lon="4.42928">
        <ele>763</ele>
        <time>2019-06-28T18:27:14Z</time>
      </trkpt>
      <trkpt lat="45.9875" lon="4.43055">
        <ele>762</ele>
        <time>2019-06-28T18:27:35Z</time>
      </trkpt>
      <trkpt lat="45.98737" lon="4.43097">
        <ele>760</ele>
        <time>2019-06-28T18:27:42Z</time>
      </trkpt>
      <trkpt lat="45.98747" lon="4.43101">
        <ele>762</ele>
        <time>2019-06-28T18:27:44Z</time>
      </trkpt>
      <trkpt lat="45.98691" lon="4.43166">
        <ele>750</ele>
        <time>2019-06-28T18:28:01Z</time>
      </trkpt>
      <trkpt lat="45.98652" lon="4.4323">
        <ele>751</ele>
        <time>2019-06-28T18:28:15Z</time>
      </trkpt>
      <trkpt lat="45.98577" lon="4.43374">
        <ele>749</ele>
        <time>2019-06-28T18:28:44Z</time>
      </trkpt>
      <trkpt lat="45.98573" lon="4.434">
        <ele>750</ele>
        <time>2019-06-28T18:28:49Z</time>
      </trkpt>
      <trkpt lat="45.98559" lon="4.43444">
        <ele>750</ele>
        <time>2019-06-28T18:28:56Z</time>
      </trkpt>
      <trkpt lat="45.98537" lon="4.43577">
        <ele>747</ele>
        <time>2019-06-28T18:29:19Z</time>
      </trkpt>
      <trkpt lat="45.98537" lon="4.43629">
        <ele>745</ele>
        <time>2019-06-28T18:29:27Z</time>
      </trkpt>
      <trkpt lat="45.98525" lon="4.43696">
        <ele>739</ele>
        <time>2019-06-28T18:29:38Z</time>
      </trkpt>
      <trkpt lat="45.98492" lon="4.43846">
        <ele>729</ele>
        <time>2019-06-28T18:30:04Z</time>
      </trkpt>
      <trkpt lat="45.98465" lon="4.43876">
        <ele>730</ele>
        <time>2019-06-28T18:30:12Z</time>
      </trkpt>
      <trkpt lat="45.98452" lon="4.43895">
        <ele>731</ele>
        <time>2019-06-28T18:30:16Z</time>
      </trkpt>
      <trkpt lat="45.98411" lon="4.43909">
        <ele>739</ele>
        <time>2019-06-28T18:30:26Z</time>
      </trkpt>
      <trkpt lat="45.98381" lon="4.43914">
        <ele>747</ele>
        <time>2019-06-28T18:30:33Z</time>
      </trkpt>
      <trkpt lat="45.98326" lon="4.43929">
        <ele>760</ele>
        <time>2019-06-28T18:30:46Z</time>
      </trkpt>
      <trkpt lat="45.98282" lon="4.43954">
        <ele>765</ele>
        <time>2019-06-28T18:30:57Z</time>
      </trkpt>
      <trkpt lat="45.98245" lon="4.43995">
        <ele>773</ele>
        <time>2019-06-28T18:31:08Z</time>
      </trkpt>
      <trkpt lat="45.98218" lon="4.4404">
        <ele>775</ele>
        <time>2019-06-28T18:31:18Z</time>
      </trkpt>
      <trkpt lat="45.9824" lon="4.44054">
        <ele>780</ele>
        <time>2019-06-28T18:31:23Z</time>
      </trkpt>
      <trkpt lat="45.98257" lon="4.44084">
        <ele>784</ele>
        <time>2019-06-28T18:31:30Z</time>
      </trkpt>
      <trkpt lat="45.98268" lon="4.44153">
        <ele>789</ele>
        <time>2019-06-28T18:31:41Z</time>
      </trkpt>
      <trkpt lat="45.98267" lon="4.4423">
        <ele>794</ele>
        <time>2019-06-28T18:31:54Z</time>
      </trkpt>
      <trkpt lat="45.9826" lon="4.44272">
        <ele>797</ele>
        <time>2019-06-28T18:32:01Z</time>
      </trkpt>
      <trkpt lat="45.98255" lon="4.44359">
        <ele>799</ele>
        <time>2019-06-28T18:32:15Z</time>
      </trkpt>
      <trkpt lat="45.9826" lon="4.44401">
        <ele>801</ele>
        <time>2019-06-28T18:32:22Z</time>
      </trkpt>
      <trkpt lat="45.98256" lon="4.4445">
        <ele>803</ele>
        <time>2019-06-28T18:32:30Z</time>
      </trkpt>
      <trkpt lat="45.98246" lon="4.44491">
        <ele>804</ele>
        <time>2019-06-28T18:32:37Z</time>
      </trkpt>
      <trkpt lat="45.98211" lon="4.44555">
        <ele>806</ele>
        <time>2019-06-28T18:32:50Z</time>
      </trkpt>
      <trkpt lat="45.98191" lon="4.44572">
        <ele>807</ele>
        <time>2019-06-28T18:32:55Z</time>
      </trkpt>
      <trkpt lat="45.98129" lon="4.44594">
        <ele>815</ele>
        <time>2019-06-28T18:33:10Z</time>
      </trkpt>
      <trkpt lat="45.98067" lon="4.44605">
        <ele>822</ele>
        <time>2019-06-28T18:33:25Z</time>
      </trkpt>
      <trkpt lat="45.98026" lon="4.44607">
        <ele>824</ele>
        <time>2019-06-28T18:33:34Z</time>
      </trkpt>
      <trkpt lat="45.97935" lon="4.44642">
        <ele>831</ele>
        <time>2019-06-28T18:33:56Z</time>
      </trkpt>
      <trkpt lat="45.97861" lon="4.44686">
        <ele>835</ele>
        <time>2019-06-28T18:34:15Z</time>
      </trkpt>
      <trkpt lat="45.97805" lon="4.44699">
        <ele>836</ele>
        <time>2019-06-28T18:34:28Z</time>
      </trkpt>
      <trkpt lat="45.97751" lon="4.44718">
        <ele>839</ele>
        <time>2019-06-28T18:34:41Z</time>
      </trkpt>
      <trkpt lat="45.97705" lon="4.44742">
        <ele>847</ele>
        <time>2019-06-28T18:34:53Z</time>
      </trkpt>
      <trkpt lat="45.97575" lon="4.44859">
        <ele>860</ele>
        <time>2019-06-28T18:35:29Z</time>
      </trkpt>
      <trkpt lat="45.97546" lon="4.44901">
        <ele>854</ele>
        <time>2019-06-28T18:35:38Z</time>
      </trkpt>
      <trkpt lat="45.97509" lon="4.44986">
        <ele>845</ele>
        <time>2019-06-28T18:35:54Z</time>
      </trkpt>
      <trkpt lat="45.97475" lon="4.45023">
        <ele>838</ele>
        <time>2019-06-28T18:36:04Z</time>
      </trkpt>
      <trkpt lat="45.97413" lon="4.45059">
        <ele>828</ele>
        <time>2019-06-28T18:36:20Z</time>
      </trkpt>
      <trkpt lat="45.97381" lon="4.45083">
        <ele>819</ele>
        <time>2019-06-28T18:36:28Z</time>
      </trkpt>
      <trkpt lat="45.97304" lon="4.45231">
        <ele>792</ele>
        <time>2019-06-28T18:36:58Z</time>
      </trkpt>
      <trkpt lat="45.97287" lon="4.45245">
        <ele>790</ele>
        <time>2019-06-28T18:37:03Z</time>
      </trkpt>
      <trkpt lat="45.9728" lon="4.45243">
        <ele>789</ele>
        <time>2019-06-28T18:37:05Z</time>
      </trkpt>
      <trkpt lat="45.97272" lon="4.45237">
        <ele>789</ele>
        <time>2019-06-28T18:37:07Z</time>
      </trkpt>
      <trkpt lat="45.97256" lon="4.45207">
        <ele>789</ele>
        <time>2019-06-28T18:37:13Z</time>
      </trkpt>
      <trkpt lat="45.9722" lon="4.45119">
        <ele>781</ele>
        <time>2019-06-28T18:37:30Z</time>
      </trkpt>
      <trkpt lat="45.97208" lon="4.45072">
        <ele>777</ele>
        <time>2019-06-28T18:37:38Z</time>
      </trkpt>
      <trkpt lat="45.97204" lon="4.45028">
        <ele>775</ele>
        <time>2019-06-28T18:37:45Z</time>
      </trkpt>
      <trkpt lat="45.97173" lon="4.44957">
        <ele>764</ele>
        <time>2019-06-28T18:37:58Z</time>
      </trkpt>
      <trkpt lat="45.97151" lon="4.44889">
        <ele>757</ele>
        <time>2019-06-28T18:38:11Z</time>
      </trkpt>
      <trkpt lat="45.97126" lon="4.44836">
        <ele>750</ele>
        <time>2019-06-28T18:38:21Z</time>
      </trkpt>
      <trkpt lat="45.97108" lon="4.4478">
        <ele>744</ele>
        <time>2019-06-28T18:38:31Z</time>
      </trkpt>
      <trkpt lat="45.97102" lon="4.44722">
        <ele>744</ele>
        <time>2019-06-28T18:38:41Z</time>
      </trkpt>
      <trkpt lat="45.97096" lon="4.44705">
        <ele>744</ele>
        <time>2019-06-28T18:38:44Z</time>
      </trkpt>
      <trkpt lat="45.97082" lon="4.447">
        <ele>741</ele>
        <time>2019-06-28T18:38:47Z</time>
      </trkpt>
      <trkpt lat="45.97071" lon="4.44704">
        <ele>739</ele>
        <time>2019-06-28T18:38:50Z</time>
      </trkpt>
      <trkpt lat="45.97008" lon="4.44601">
        <ele>744</ele>
        <time>2019-06-28T18:39:12Z</time>
      </trkpt>
      <trkpt lat="45.96969" lon="4.44565">
        <ele>749</ele>
        <time>2019-06-28T18:39:23Z</time>
      </trkpt>
      <trkpt lat="45.96899" lon="4.44555">
        <ele>747</ele>
        <time>2019-06-28T18:39:39Z</time>
      </trkpt>
      <trkpt lat="45.96835" lon="4.44533">
        <ele>752</ele>
        <time>2019-06-28T18:39:55Z</time>
      </trkpt>
      <trkpt lat="45.96801" lon="4.44539">
        <ele>749</ele>
        <time>2019-06-28T18:40:03Z</time>
      </trkpt>
      <trkpt lat="45.96768" lon="4.44536">
        <ele>748</ele>
        <time>2019-06-28T18:40:10Z</time>
      </trkpt>
      <trkpt lat="45.96716" lon="4.44538">
        <ele>747</ele>
        <time>2019-06-28T18:40:22Z</time>
      </trkpt>
      <trkpt lat="45.96658" lon="4.44522">
        <ele>744</ele>
        <time>2019-06-28T18:40:36Z</time>
      </trkpt>
      <trkpt lat="45.96642" lon="4.44501">
        <ele>740</ele>
        <time>2019-06-28T18:40:41Z</time>
      </trkpt>
      <trkpt lat="45.96624" lon="4.44455">
        <ele>737</ele>
        <time>2019-06-28T18:40:50Z</time>
      </trkpt>
      <trkpt lat="45.9662" lon="4.44438">
        <ele>736</ele>
        <time>2019-06-28T18:40:53Z</time>
      </trkpt>
      <trkpt lat="45.96612" lon="4.44424">
        <ele>735</ele>
        <time>2019-06-28T18:40:56Z</time>
      </trkpt>
      <trkpt lat="45.96594" lon="4.44411">
        <ele>731</ele>
        <time>2019-06-28T18:41:00Z</time>
      </trkpt>
      <trkpt lat="45.9656" lon="4.44357">
        <ele>732</ele>
        <time>2019-06-28T18:41:12Z</time>
      </trkpt>
      <trkpt lat="45.96535" lon="4.44307">
        <ele>741</ele>
        <time>2019-06-28T18:41:22Z</time>
      </trkpt>
      <trkpt lat="45.96519" lon="4.44305">
        <ele>741</ele>
        <time>2019-06-28T18:41:26Z</time>
      </trkpt>
      <trkpt lat="45.96487" lon="4.4432">
        <ele>735</ele>
        <time>2019-06-28T18:41:34Z</time>
      </trkpt>
      <trkpt lat="45.96447" lon="4.44381">
        <ele>721</ele>
        <time>2019-06-28T18:41:47Z</time>
      </trkpt>
      <trkpt lat="45.96439" lon="4.44404">
        <ele>716</ele>
        <time>2019-06-28T18:41:52Z</time>
      </trkpt>
      <trkpt lat="45.96417" lon="4.44443">
        <ele>707</ele>
        <time>2019-06-28T18:42:00Z</time>
      </trkpt>
      <trkpt lat="45.96398" lon="4.44462">
        <ele>706</ele>
        <time>2019-06-28T18:42:05Z</time>
      </trkpt>
      <trkpt lat="45.96357" lon="4.44473">
        <ele>713</ele>
        <time>2019-06-28T18:42:15Z</time>
      </trkpt>
      <trkpt lat="45.96348" lon="4.44499">
        <ele>709</ele>
        <time>2019-06-28T18:42:20Z</time>
      </trkpt>
      <trkpt lat="45.96341" lon="4.44544">
        <ele>700</ele>
        <time>2019-06-28T18:42:27Z</time>
      </trkpt>
      <trkpt lat="45.96329" lon="4.44577">
        <ele>694</ele>
        <time>2019-06-28T18:42:33Z</time>
      </trkpt>
      <trkpt lat="45.96285" lon="4.4465">
        <ele>700</ele>
        <time>2019-06-28T18:42:49Z</time>
      </trkpt>
      <trkpt lat="45.96251" lon="4.44801">
        <ele>697</ele>
        <time>2019-06-28T18:43:15Z</time>
      </trkpt>
      <trkpt lat="45.96208" lon="4.449">
        <ele>693</ele>
        <time>2019-06-28T18:43:34Z</time>
      </trkpt>
      <trkpt lat="45.96195" lon="4.44909">
        <ele>692</ele>
        <time>2019-06-28T18:43:37Z</time>
      </trkpt>
      <trkpt lat="45.9618" lon="4.44906">
        <ele>693</ele>
        <time>2019-06-28T18:43:40Z</time>
      </trkpt>
      <trkpt lat="45.96166" lon="4.44891">
        <ele>694</ele>
        <time>2019-06-28T18:43:45Z</time>
      </trkpt>
      <trkpt lat="45.96097" lon="4.44737">
        <ele>688</ele>
        <time>2019-06-28T18:44:14Z</time>
      </trkpt>
      <trkpt lat="45.9608" lon="4.44704">
        <ele>689</ele>
        <time>2019-06-28T18:44:21Z</time>
      </trkpt>
      <trkpt lat="45.96062" lon="4.44682">
        <ele>688</ele>
        <time>2019-06-28T18:44:26Z</time>
      </trkpt>
      <trkpt lat="45.96024" lon="4.44623">
        <ele>693</ele>
        <time>2019-06-28T18:44:40Z</time>
      </trkpt>
      <trkpt lat="45.96009" lon="4.44624">
        <ele>689</ele>
        <time>2019-06-28T18:44:43Z</time>
      </trkpt>
      <trkpt lat="45.95994" lon="4.44646">
        <ele>681</ele>
        <time>2019-06-28T18:44:48Z</time>
      </trkpt>
      <trkpt lat="45.95974" lon="4.44662">
        <ele>677</ele>
        <time>2019-06-28T18:44:53Z</time>
      </trkpt>
      <trkpt lat="45.95935" lon="4.44673">
        <ele>674</ele>
        <time>2019-06-28T18:45:03Z</time>
      </trkpt>
      <trkpt lat="45.95916" lon="4.44687">
        <ele>671</ele>
        <time>2019-06-28T18:45:08Z</time>
      </trkpt>
      <trkpt lat="45.95909" lon="4.44696">
        <ele>668</ele>
        <time>2019-06-28T18:45:10Z</time>
      </trkpt>
      <trkpt lat="45.95878" lon="4.44708">
        <ele>663</ele>
        <time>2019-06-28T18:45:17Z</time>
      </trkpt>
      <trkpt lat="45.95836" lon="4.4469">
        <ele>666</ele>
        <time>2019-06-28T18:45:28Z</time>
      </trkpt>
      <trkpt lat="45.9579" lon="4.44715">
        <ele>666</ele>
        <time>2019-06-28T18:45:39Z</time>
      </trkpt>
      <trkpt lat="45.95773" lon="4.44727">
        <ele>665</ele>
        <time>2019-06-28T18:45:43Z</time>
      </trkpt>
      <trkpt lat="45.95761" lon="4.44743">
        <ele>662</ele>
        <time>2019-06-28T18:45:47Z</time>
      </trkpt>
      <trkpt lat="45.95757" lon="4.44762">
        <ele>659</ele>
        <time>2019-06-28T18:45:51Z</time>
      </trkpt>
      <trkpt lat="45.95757" lon="4.44803">
        <ele>654</ele>
        <time>2019-06-28T18:45:57Z</time>
      </trkpt>
      <trkpt lat="45.95753" lon="4.44813">
        <ele>653</ele>
        <time>2019-06-28T18:45:59Z</time>
      </trkpt>
      <trkpt lat="45.95753" lon="4.44851">
        <ele>651</ele>
        <time>2019-06-28T18:46:05Z</time>
      </trkpt>
      <trkpt lat="45.95744" lon="4.44879">
        <ele>653</ele>
        <time>2019-06-28T18:46:10Z</time>
      </trkpt>
      <trkpt lat="45.9573" lon="4.44908">
        <ele>657</ele>
        <time>2019-06-28T18:46:16Z</time>
      </trkpt>
      <trkpt lat="45.95719" lon="4.44919">
        <ele>659</ele>
        <time>2019-06-28T18:46:19Z</time>
      </trkpt>
      <trkpt lat="45.95693" lon="4.44953">
        <ele>659</ele>
        <time>2019-06-28T18:46:27Z</time>
      </trkpt>
      <trkpt lat="45.95633" lon="4.44989">
        <ele>661</ele>
        <time>2019-06-28T18:46:42Z</time>
      </trkpt>
      <trkpt lat="45.9562" lon="4.45002">
        <ele>661</ele>
        <time>2019-06-28T18:46:46Z</time>
      </trkpt>
      <trkpt lat="45.95597" lon="4.45013">
        <ele>661</ele>
        <time>2019-06-28T18:46:52Z</time>
      </trkpt>
      <trkpt lat="45.95558" lon="4.45016">
        <ele>661</ele>
        <time>2019-06-28T18:47:01Z</time>
      </trkpt>
      <trkpt lat="45.95511" lon="4.45005">
        <ele>660</ele>
        <time>2019-06-28T18:47:12Z</time>
      </trkpt>
      <trkpt lat="45.95495" lon="4.44994">
        <ele>660</ele>
        <time>2019-06-28T18:47:16Z</time>
      </trkpt>
      <trkpt lat="45.95474" lon="4.45011">
        <ele>658</ele>
        <time>2019-06-28T18:47:22Z</time>
      </trkpt>
      <trkpt lat="45.95426" lon="4.45073">
        <ele>655</ele>
        <time>2019-06-28T18:47:37Z</time>
      </trkpt>
      <trkpt lat="45.9541" lon="4.45122">
        <ele>653</ele>
        <time>2019-06-28T18:47:46Z</time>
      </trkpt>
      <trkpt lat="45.95393" lon="4.45157">
        <ele>652</ele>
        <time>2019-06-28T18:47:53Z</time>
      </trkpt>
      <trkpt lat="45.9536" lon="4.45213">
        <ele>657</ele>
        <time>2019-06-28T18:48:05Z</time>
      </trkpt>
      <trkpt lat="45.95344" lon="4.45253">
        <ele>662</ele>
        <time>2019-06-28T18:48:12Z</time>
      </trkpt>
      <trkpt lat="45.95325" lon="4.45275">
        <ele>662</ele>
        <time>2019-06-28T18:48:18Z</time>
      </trkpt>
      <trkpt lat="45.95296" lon="4.45296">
        <ele>662</ele>
        <time>2019-06-28T18:48:25Z</time>
      </trkpt>
      <trkpt lat="45.95266" lon="4.45298">
        <ele>663</ele>
        <time>2019-06-28T18:48:32Z</time>
      </trkpt>
      <trkpt lat="45.95251" lon="4.45295">
        <ele>663</ele>
        <time>2019-06-28T18:48:36Z</time>
      </trkpt>
      <trkpt lat="45.95236" lon="4.45303">
        <ele>664</ele>
        <time>2019-06-28T18:48:40Z</time>
      </trkpt>
      <trkpt lat="45.95199" lon="4.45344">
        <ele>666</ele>
        <time>2019-06-28T18:48:51Z</time>
      </trkpt>
      <trkpt lat="45.95142" lon="4.454">
        <ele>661</ele>
        <time>2019-06-28T18:49:07Z</time>
      </trkpt>
      <trkpt lat="45.95126" lon="4.45413">
        <ele>659</ele>
        <time>2019-06-28T18:49:11Z</time>
      </trkpt>
      <trkpt lat="45.95117" lon="4.45425">
        <ele>658</ele>
        <time>2019-06-28T18:49:14Z</time>
      </trkpt>
      <trkpt lat="45.95099" lon="4.45442">
        <ele>656</ele>
        <time>2019-06-28T18:49:19Z</time>
      </trkpt>
      <trkpt lat="45.95091" lon="4.45474">
        <ele>655</ele>
        <time>2019-06-28T18:49:24Z</time>
      </trkpt>
      <trkpt lat="45.95091" lon="4.45498">
        <ele>654</ele>
        <time>2019-06-28T18:49:28Z</time>
      </trkpt>
      <trkpt lat="45.95075" lon="4.45542">
        <ele>648</ele>
        <time>2019-06-28T18:49:36Z</time>
      </trkpt>
      <trkpt lat="45.95056" lon="4.45578">
        <ele>642</ele>
        <time>2019-06-28T18:49:44Z</time>
      </trkpt>
      <trkpt lat="45.95021" lon="4.45604">
        <ele>636</ele>
        <time>2019-06-28T18:49:53Z</time>
      </trkpt>
      <trkpt lat="45.95012" lon="4.45606">
        <ele>635</ele>
        <time>2019-06-28T18:49:55Z</time>
      </trkpt>
      <trkpt lat="45.94998" lon="4.45615">
        <ele>633</ele>
        <time>2019-06-28T18:49:59Z</time>
      </trkpt>
      <trkpt lat="45.94983" lon="4.4564">
        <ele>630</ele>
        <time>2019-06-28T18:50:04Z</time>
      </trkpt>
      <trkpt lat="45.94961" lon="4.45692">
        <ele>624</ele>
        <time>2019-06-28T18:50:14Z</time>
      </trkpt>
      <trkpt lat="45.94937" lon="4.45721">
        <ele>621</ele>
        <time>2019-06-28T18:50:21Z</time>
      </trkpt>
      <trkpt lat="45.94911" lon="4.45738">
        <ele>621</ele>
        <time>2019-06-28T18:50:28Z</time>
      </trkpt>
      <trkpt lat="45.94878" lon="4.45777">
        <ele>620</ele>
        <time>2019-06-28T18:50:38Z</time>
      </trkpt>
      <trkpt lat="45.94861" lon="4.45777">
        <ele>621</ele>
        <time>2019-06-28T18:50:42Z</time>
      </trkpt>
      <trkpt lat="45.94839" lon="4.4577">
        <ele>622</ele>
        <time>2019-06-28T18:50:47Z</time>
      </trkpt>
      <trkpt lat="45.94785" lon="4.45765">
        <ele>624</ele>
        <time>2019-06-28T18:51:00Z</time>
      </trkpt>
      <trkpt lat="45.94691" lon="4.4574">
        <ele>629</ele>
        <time>2019-06-28T18:51:22Z</time>
      </trkpt>
      <trkpt lat="45.94641" lon="4.45732">
        <ele>629</ele>
        <time>2019-06-28T18:51:34Z</time>
      </trkpt>
      <trkpt lat="45.94609" lon="4.45742">
        <ele>629</ele>
        <time>2019-06-28T18:51:41Z</time>
      </trkpt>
      <trkpt lat="45.94582" lon="4.45763">
        <ele>631</ele>
        <time>2019-06-28T18:51:49Z</time>
      </trkpt>
      <trkpt lat="45.94557" lon="4.45795">
        <ele>630</ele>
        <time>2019-06-28T18:51:56Z</time>
      </trkpt>
      <trkpt lat="45.94532" lon="4.45841">
        <ele>629</ele>
        <time>2019-06-28T18:52:06Z</time>
      </trkpt>
      <trkpt lat="45.9451" lon="4.45894">
        <ele>627</ele>
        <time>2019-06-28T18:52:16Z</time>
      </trkpt>
      <trkpt lat="45.94498" lon="4.45958">
        <ele>629</ele>
        <time>2019-06-28T18:52:27Z</time>
      </trkpt>
      <trkpt lat="45.94487" lon="4.45989">
        <ele>629</ele>
        <time>2019-06-28T18:52:32Z</time>
      </trkpt>
      <trkpt lat="45.94427" lon="4.46088">
        <ele>631</ele>
        <time>2019-06-28T18:52:54Z</time>
      </trkpt>
      <trkpt lat="45.94404" lon="4.46098">
        <ele>631</ele>
        <time>2019-06-28T18:52:59Z</time>
      </trkpt>
      <trkpt lat="45.94359" lon="4.46131">
        <ele>632</ele>
        <time>2019-06-28T18:53:11Z</time>
      </trkpt>
      <trkpt lat="45.94323" lon="4.46163">
        <ele>633</ele>
        <time>2019-06-28T18:53:21Z</time>
      </trkpt>
      <trkpt lat="45.9424" lon="4.46217">
        <ele>632</ele>
        <time>2019-06-28T18:53:42Z</time>
      </trkpt>
      <trkpt lat="45.94197" lon="4.46248">
        <ele>630</ele>
        <time>2019-06-28T18:53:53Z</time>
      </trkpt>
      <trkpt lat="45.94152" lon="4.46331">
        <ele>627</ele>
        <time>2019-06-28T18:54:10Z</time>
      </trkpt>
      <trkpt lat="45.94123" lon="4.4635">
        <ele>624</ele>
        <time>2019-06-28T18:54:18Z</time>
      </trkpt>
      <trkpt lat="45.94106" lon="4.46367">
        <ele>623</ele>
        <time>2019-06-28T18:54:23Z</time>
      </trkpt>
      <trkpt lat="45.94088" lon="4.46401">
        <ele>621</ele>
        <time>2019-06-28T18:54:30Z</time>
      </trkpt>
      <trkpt lat="45.94075" lon="4.46456">
        <ele>619</ele>
        <time>2019-06-28T18:54:39Z</time>
      </trkpt>
      <trkpt lat="45.94069" lon="4.4647">
        <ele>618</ele>
        <time>2019-06-28T18:54:42Z</time>
      </trkpt>
      <trkpt lat="45.94056" lon="4.4649">
        <ele>617</ele>
        <time>2019-06-28T18:54:46Z</time>
      </trkpt>
      <trkpt lat="45.94033" lon="4.46509">
        <ele>615</ele>
        <time>2019-06-28T18:54:52Z</time>
      </trkpt>
      <trkpt lat="45.94012" lon="4.46519">
        <ele>614</ele>
        <time>2019-06-28T18:54:58Z</time>
      </trkpt>
      <trkpt lat="45.93984" lon="4.46537">
        <ele>612</ele>
        <time>2019-06-28T18:55:05Z</time>
      </trkpt>
      <trkpt lat="45.93965" lon="4.46541">
        <ele>612</ele>
        <time>2019-06-28T18:55:09Z</time>
      </trkpt>
      <trkpt lat="45.93881" lon="4.46591">
        <ele>610</ele>
        <time>2019-06-28T18:55:30Z</time>
      </trkpt>
      <trkpt lat="45.93851" lon="4.46603">
        <ele>610</ele>
        <time>2019-06-28T18:55:38Z</time>
      </trkpt>
      <trkpt lat="45.93828" lon="4.46616">
        <ele>609</ele>
        <time>2019-06-28T18:55:44Z</time>
      </trkpt>
      <trkpt lat="45.9379" lon="4.46633">
        <ele>604</ele>
        <time>2019-06-28T18:55:53Z</time>
      </trkpt>
      <trkpt lat="45.93765" lon="4.46648">
        <ele>601</ele>
        <time>2019-06-28T18:55:59Z</time>
      </trkpt>
      <trkpt lat="45.93744" lon="4.46656">
        <ele>598</ele>
        <time>2019-06-28T18:56:04Z</time>
      </trkpt>
      <trkpt lat="45.93717" lon="4.46689">
        <ele>594</ele>
        <time>2019-06-28T18:56:12Z</time>
      </trkpt>
      <trkpt lat="45.93716" lon="4.46697">
        <ele>593</ele>
        <time>2019-06-28T18:56:14Z</time>
      </trkpt>
      <trkpt lat="45.93729" lon="4.46682">
        <ele>595</ele>
        <time>2019-06-28T18:56:18Z</time>
      </trkpt>
      <trkpt lat="45.93742" lon="4.46674">
        <ele>597</ele>
        <time>2019-06-28T18:56:21Z</time>
      </trkpt>
      <trkpt lat="45.93753" lon="4.4668">
        <ele>597</ele>
        <time>2019-06-28T18:56:24Z</time>
      </trkpt>
      <trkpt lat="45.9378" lon="4.46749">
        <ele>593</ele>
        <time>2019-06-28T18:56:37Z</time>
      </trkpt>
      <trkpt lat="45.93793" lon="4.46764">
        <ele>593</ele>
        <time>2019-06-28T18:56:41Z</time>
      </trkpt>
      <trkpt lat="45.93816" lon="4.46776">
        <ele>594</ele>
        <time>2019-06-28T18:56:46Z</time>
      </trkpt>
      <trkpt lat="45.93841" lon="4.46777">
        <ele>596</ele>
        <time>2019-06-28T18:56:52Z</time>
      </trkpt>
      <trkpt lat="45.93866" lon="4.46768">
        <ele>600</ele>
        <time>2019-06-28T18:56:58Z</time>
      </trkpt>
      <trkpt lat="45.93885" lon="4.46766">
        <ele>601</ele>
        <time>2019-06-28T18:57:03Z</time>
      </trkpt>
      <trkpt lat="45.93911" lon="4.46772">
        <ele>602</ele>
        <time>2019-06-28T18:57:09Z</time>
      </trkpt>
      <trkpt lat="45.9394" lon="4.46788">
        <ele>598</ele>
        <time>2019-06-28T18:57:16Z</time>
      </trkpt>
      <trkpt lat="45.9399" lon="4.46839">
        <ele>590</ele>
        <time>2019-06-28T18:57:30Z</time>
      </trkpt>
      <trkpt lat="45.94015" lon="4.46845">
        <ele>587</ele>
        <time>2019-06-28T18:57:36Z</time>
      </trkpt>
      <trkpt lat="45.94045" lon="4.46819">
        <ele>585</ele>
        <time>2019-06-28T18:57:44Z</time>
      </trkpt>
      <trkpt lat="45.94122" lon="4.46798">
        <ele>579</ele>
        <time>2019-06-28T18:58:03Z</time>
      </trkpt>
      <trkpt lat="45.94168" lon="4.46813">
        <ele>573</ele>
        <time>2019-06-28T18:58:14Z</time>
      </trkpt>
      <trkpt lat="45.94183" lon="4.46823">
        <ele>572</ele>
        <time>2019-06-28T18:58:18Z</time>
      </trkpt>
      <trkpt lat="45.9422" lon="4.46837">
        <ele>571</ele>
        <time>2019-06-28T18:58:26Z</time>
      </trkpt>
      <trkpt lat="45.94224" lon="4.46847">
        <ele>569</ele>
        <time>2019-06-28T18:58:28Z</time>
      </trkpt>
      <trkpt lat="45.94238" lon="4.46864">
        <ele>567</ele>
        <time>2019-06-28T18:58:33Z</time>
      </trkpt>
      <trkpt lat="45.94283" lon="4.46899">
        <ele>559</ele>
        <time>2019-06-28T18:58:45Z</time>
      </trkpt>
      <trkpt lat="45.94336" lon="4.46921">
        <ele>554</ele>
        <time>2019-06-28T18:58:57Z</time>
      </trkpt>
      <trkpt lat="45.94322" lon="4.46955">
        <ele>549</ele>
        <time>2019-06-28T18:59:04Z</time>
      </trkpt>
      <trkpt lat="45.94315" lon="4.46979">
        <ele>545</ele>
        <time>2019-06-28T18:59:08Z</time>
      </trkpt>
      <trkpt lat="45.94286" lon="4.47045">
        <ele>530</ele>
        <time>2019-06-28T18:59:21Z</time>
      </trkpt>
      <trkpt lat="45.94272" lon="4.47062">
        <ele>526</ele>
        <time>2019-06-28T18:59:25Z</time>
      </trkpt>
      <trkpt lat="45.94266" lon="4.47074">
        <ele>524</ele>
        <time>2019-06-28T18:59:27Z</time>
      </trkpt>
      <trkpt lat="45.9429" lon="4.47114">
        <ele>513</ele>
        <time>2019-06-28T18:59:36Z</time>
      </trkpt>
      <trkpt lat="45.94309" lon="4.47124">
        <ele>510</ele>
        <time>2019-06-28T18:59:41Z</time>
      </trkpt>
      <trkpt lat="45.94308" lon="4.47136">
        <ele>507</ele>
        <time>2019-06-28T18:59:43Z</time>
      </trkpt>
      <trkpt lat="45.9427" lon="4.47183">
        <ele>497</ele>
        <time>2019-06-28T18:59:54Z</time>
      </trkpt>
      <trkpt lat="45.94262" lon="4.47187">
        <ele>496</ele>
        <time>2019-06-28T18:59:56Z</time>
      </trkpt>
      <trkpt lat="45.94274" lon="4.47198">
        <ele>493</ele>
        <time>2019-06-28T19:00:00Z</time>
      </trkpt>
      <trkpt lat="45.94286" lon="4.47205">
        <ele>491</ele>
        <time>2019-06-28T19:00:03Z</time>
      </trkpt>
      <trkpt lat="45.94316" lon="4.47212">
        <ele>488</ele>
        <time>2019-06-28T19:00:10Z</time>
      </trkpt>
      <trkpt lat="45.94356" lon="4.4719">
        <ele>487</ele>
        <time>2019-06-28T19:00:20Z</time>
      </trkpt>
      <trkpt lat="45.94418" lon="4.47148">
        <ele>481</ele>
        <time>2019-06-28T19:00:36Z</time>
      </trkpt>
      <trkpt lat="45.94522" lon="4.47128">
        <ele>456</ele>
        <time>2019-06-28T19:01:00Z</time>
      </trkpt>
      <trkpt lat="45.94613" lon="4.47075">
        <ele>443</ele>
        <time>2019-06-28T19:01:23Z</time>
      </trkpt>
      <trkpt lat="45.94575" lon="4.4715">
        <ele>438</ele>
        <time>2019-06-28T19:01:38Z</time>
      </trkpt>
      <trkpt lat="45.94546" lon="4.47189">
        <ele>439</ele>
        <time>2019-06-28T19:01:48Z</time>
      </trkpt>
      <trkpt lat="45.94436" lon="4.47311">
        <ele>435</ele>
        <time>2019-06-28T19:02:20Z</time>
      </trkpt>
      <trkpt lat="45.94363" lon="4.47426">
        <ele>429</ele>
        <time>2019-06-28T19:02:45Z</time>
      </trkpt>
      <trkpt lat="45.94336" lon="4.47442">
        <ele>431</ele>
        <time>2019-06-28T19:02:52Z</time>
      </trkpt>
      <trkpt lat="45.94255" lon="4.47564">
        <ele>425</ele>
        <time>2019-06-28T19:03:20Z</time>
      </trkpt>
      <trkpt lat="45.9417" lon="4.47617">
        <ele>427</ele>
        <time>2019-06-28T19:03:41Z</time>
      </trkpt>
      <trkpt lat="45.94138" lon="4.47658">
        <ele>420</ele>
        <time>2019-06-28T19:03:51Z</time>
      </trkpt>
      <trkpt lat="45.94068" lon="4.47727">
        <ele>419</ele>
        <time>2019-06-28T19:04:11Z</time>
      </trkpt>
      <trkpt lat="45.93966" lon="4.47862">
        <ele>409</ele>
        <time>2019-06-28T19:04:43Z</time>
      </trkpt>
      <trkpt lat="45.93921" lon="4.47913">
        <ele>406</ele>
        <time>2019-06-28T19:04:57Z</time>
      </trkpt>
      <trkpt lat="45.93869" lon="4.47982">
        <ele>403</ele>
        <time>2019-06-28T19:05:13Z</time>
      </trkpt>
      <trkpt lat="45.9388" lon="4.47976">
        <ele>403</ele>
        <time>2019-06-28T19:05:16Z</time>
      </trkpt>
      <trkpt lat="45.93902" lon="4.47955">
        <ele>404</ele>
        <time>2019-06-28T19:05:22Z</time>
      </trkpt>
      <trkpt lat="45.93916" lon="4.47949">
        <ele>404</ele>
        <time>2019-06-28T19:05:26Z</time>
      </trkpt>
      <trkpt lat="45.93934" lon="4.4793">
        <ele>405</ele>
        <time>2019-06-28T19:05:31Z</time>
      </trkpt>
      <trkpt lat="45.93996" lon="4.47883">
        <ele>404</ele>
        <time>2019-06-28T19:05:47Z</time>
      </trkpt>
      <trkpt lat="45.94031" lon="4.47892">
        <ele>406</ele>
        <time>2019-06-28T19:05:56Z</time>
      </trkpt>
      <trkpt lat="45.94172" lon="4.47984">
        <ele>423</ele>
        <time>2019-06-28T19:06:32Z</time>
      </trkpt>
      <trkpt lat="45.94193" lon="4.47991">
        <ele>427</ele>
        <time>2019-06-28T19:06:37Z</time>
      </trkpt>
      <trkpt lat="45.9421" lon="4.47992">
        <ele>431</ele>
        <time>2019-06-28T19:06:41Z</time>
      </trkpt>
      <trkpt lat="45.9427" lon="4.48028">
        <ele>438</ele>
        <time>2019-06-28T19:06:56Z</time>
      </trkpt>
      <trkpt lat="45.94325" lon="4.48046">
        <ele>440</ele>
        <time>2019-06-28T19:07:09Z</time>
      </trkpt>
      <trkpt lat="45.94387" lon="4.48079">
        <ele>442</ele>
        <time>2019-06-28T19:07:24Z</time>
      </trkpt>
      <trkpt lat="45.94413" lon="4.481">
        <ele>444</ele>
        <time>2019-06-28T19:07:31Z</time>
      </trkpt>
      <trkpt lat="45.94426" lon="4.48115">
        <ele>443</ele>
        <time>2019-06-28T19:07:35Z</time>
      </trkpt>
      <trkpt lat="45.9445" lon="4.48124">
        <ele>446</ele>
        <time>2019-06-28T19:07:41Z</time>
      </trkpt>
      <trkpt lat="45.94462" lon="4.48132">
        <ele>446</ele>
        <time>2019-06-28T19:07:44Z</time>
      </trkpt>
      <trkpt lat="45.94522" lon="4.48149">
        <ele>450</ele>
        <time>2019-06-28T19:07:58Z</time>
      </trkpt>
      <trkpt lat="45.94576" lon="4.48173">
        <ele>453</ele>
        <time>2019-06-28T19:08:12Z</time>
      </trkpt>
      <trkpt lat="45.94623" lon="4.48204">
        <ele>457</ele>
        <time>2019-06-28T19:08:24Z</time>
      </trkpt>
      <trkpt lat="45.94635" lon="4.48205">
        <ele>459</ele>
        <time>2019-06-28T19:08:27Z</time>
      </trkpt>
      <trkpt lat="45.94659" lon="4.48217">
        <ele>460</ele>
        <time>2019-06-28T19:08:32Z</time>
      </trkpt>
      <trkpt lat="45.94683" lon="4.48245">
        <ele>458</ele>
        <time>2019-06-28T19:08:40Z</time>
      </trkpt>
      <trkpt lat="45.94788" lon="4.48316">
        <ele>477</ele>
        <time>2019-06-28T19:09:07Z</time>
      </trkpt>
      <trkpt lat="45.94821" lon="4.48352">
        <ele>482</ele>
        <time>2019-06-28T19:09:16Z</time>
      </trkpt>
      <trkpt lat="45.94869" lon="4.48423">
        <ele>475</ele>
        <time>2019-06-28T19:09:33Z</time>
      </trkpt>
      <trkpt lat="45.94902" lon="4.48453">
        <ele>479</ele>
        <time>2019-06-28T19:09:42Z</time>
      </trkpt>
      <trkpt lat="45.94938" lon="4.48481">
        <ele>480</ele>
        <time>2019-06-28T19:09:51Z</time>
      </trkpt>
      <trkpt lat="45.94983" lon="4.48498">
        <ele>483</ele>
        <time>2019-06-28T19:10:02Z</time>
      </trkpt>
      <trkpt lat="45.94993" lon="4.48507">
        <ele>485</ele>
        <time>2019-06-28T19:10:05Z</time>
      </trkpt>
      <trkpt lat="45.95037" lon="4.48526">
        <ele>489</ele>
        <time>2019-06-28T19:10:16Z</time>
      </trkpt>
      <trkpt lat="45.95094" lon="4.48535">
        <ele>494</ele>
        <time>2019-06-28T19:10:29Z</time>
      </trkpt>
      <trkpt lat="45.95246" lon="4.48541">
        <ele>519</ele>
        <time>2019-06-28T19:11:04Z</time>
      </trkpt>
      <trkpt lat="45.95314" lon="4.48555">
        <ele>528</ele>
        <time>2019-06-28T19:11:21Z</time>
      </trkpt>
      <trkpt lat="45.95435" lon="4.48601">
        <ele>543</ele>
        <time>2019-06-28T19:11:50Z</time>
      </trkpt>
      <trkpt lat="45.95447" lon="4.48602">
        <ele>545</ele>
        <time>2019-06-28T19:11:53Z</time>
      </trkpt>
      <trkpt lat="45.95471" lon="4.4858">
        <ele>548</ele>
        <time>2019-06-28T19:11:59Z</time>
      </trkpt>
      <trkpt lat="45.95531" lon="4.48599">
        <ele>559</ele>
        <time>2019-06-28T19:12:14Z</time>
      </trkpt>
      <trkpt lat="45.95558" lon="4.48599">
        <ele>564</ele>
        <time>2019-06-28T19:12:20Z</time>
      </trkpt>
      <trkpt lat="45.9568" lon="4.48589">
        <ele>589</ele>
        <time>2019-06-28T19:12:48Z</time>
      </trkpt>
      <trkpt lat="45.95678" lon="4.48595">
        <ele>589</ele>
        <time>2019-06-28T19:12:49Z</time>
      </trkpt>
      <trkpt lat="45.95648" lon="4.48622">
        <ele>583</ele>
        <time>2019-06-28T19:12:58Z</time>
      </trkpt>
      <trkpt lat="45.95617" lon="4.48674">
        <ele>582</ele>
        <time>2019-06-28T19:13:09Z</time>
      </trkpt>
      <trkpt lat="45.95605" lon="4.48687">
        <ele>584</ele>
        <time>2019-06-28T19:13:12Z</time>
      </trkpt>
      <trkpt lat="45.95546" lon="4.4871">
        <ele>580</ele>
        <time>2019-06-28T19:13:27Z</time>
      </trkpt>
      <trkpt lat="45.95534" lon="4.48719">
        <ele>580</ele>
        <time>2019-06-28T19:13:30Z</time>
      </trkpt>
      <trkpt lat="45.95502" lon="4.48758">
        <ele>585</ele>
        <time>2019-06-28T19:13:40Z</time>
      </trkpt>
      <trkpt lat="45.95487" lon="4.48801">
        <ele>595</ele>
        <time>2019-06-28T19:13:47Z</time>
      </trkpt>
      <trkpt lat="45.95471" lon="4.48825">
        <ele>600</ele>
        <time>2019-06-28T19:13:53Z</time>
      </trkpt>
      <trkpt lat="45.95452" lon="4.48835">
        <ele>602</ele>
        <time>2019-06-28T19:13:58Z</time>
      </trkpt>
      <trkpt lat="45.95388" lon="4.48822">
        <ele>596</ele>
        <time>2019-06-28T19:14:13Z</time>
      </trkpt>
      <trkpt lat="45.95324" lon="4.48816">
        <ele>595</ele>
        <time>2019-06-28T19:14:28Z</time>
      </trkpt>
      <trkpt lat="45.95283" lon="4.48797">
        <ele>586</ele>
        <time>2019-06-28T19:14:38Z</time>
      </trkpt>
      <trkpt lat="45.95227" lon="4.48808">
        <ele>581</ele>
        <time>2019-06-28T19:14:51Z</time>
      </trkpt>
      <trkpt lat="45.95196" lon="4.48818">
        <ele>574</ele>
        <time>2019-06-28T19:14:58Z</time>
      </trkpt>
      <trkpt lat="45.95175" lon="4.48835">
        <ele>571</ele>
        <time>2019-06-28T19:15:04Z</time>
      </trkpt>
      <trkpt lat="45.95162" lon="4.48868">
        <ele>569</ele>
        <time>2019-06-28T19:15:10Z</time>
      </trkpt>
      <trkpt lat="45.95158" lon="4.48899">
        <ele>571</ele>
        <time>2019-06-28T19:15:15Z</time>
      </trkpt>
      <trkpt lat="45.95169" lon="4.48966">
        <ele>578</ele>
        <time>2019-06-28T19:15:26Z</time>
      </trkpt>
      <trkpt lat="45.95159" lon="4.48976">
        <ele>576</ele>
        <time>2019-06-28T19:15:29Z</time>
      </trkpt>
      <trkpt lat="45.95117" lon="4.49001">
        <ele>565</ele>
        <time>2019-06-28T19:15:40Z</time>
      </trkpt>
      <trkpt lat="45.95081" lon="4.4903">
        <ele>560</ele>
        <time>2019-06-28T19:15:49Z</time>
      </trkpt>
      <trkpt lat="45.95047" lon="4.49117">
        <ele>577</ele>
        <time>2019-06-28T19:16:06Z</time>
      </trkpt>
      <trkpt lat="45.95044" lon="4.4913">
        <ele>578</ele>
        <time>2019-06-28T19:16:08Z</time>
      </trkpt>
      <trkpt lat="45.95026" lon="4.49161">
        <ele>582</ele>
        <time>2019-06-28T19:16:14Z</time>
      </trkpt>
      <trkpt lat="45.95018" lon="4.49156">
        <ele>582</ele>
        <time>2019-06-28T19:16:16Z</time>
      </trkpt>
      <trkpt lat="45.94999" lon="4.49165">
        <ele>582</ele>
        <time>2019-06-28T19:16:21Z</time>
      </trkpt>
      <trkpt lat="45.94952" lon="4.49211">
        <ele>598</ele>
        <time>2019-06-28T19:16:34Z</time>
      </trkpt>
      <trkpt lat="45.94922" lon="4.49259">
        <ele>602</ele>
        <time>2019-06-28T19:16:45Z</time>
      </trkpt>
      <trkpt lat="45.94899" lon="4.49286">
        <ele>610</ele>
        <time>2019-06-28T19:16:52Z</time>
      </trkpt>
      <trkpt lat="45.94907" lon="4.49303">
        <ele>608</ele>
        <time>2019-06-28T19:16:55Z</time>
      </trkpt>
      <trkpt lat="45.94926" lon="4.49315">
        <ele>606</ele>
        <time>2019-06-28T19:17:00Z</time>
      </trkpt>
      <trkpt lat="45.94931" lon="4.49331">
        <ele>607</ele>
        <time>2019-06-28T19:17:03Z</time>
      </trkpt>
      <trkpt lat="45.9493" lon="4.49392">
        <ele>610</ele>
        <time>2019-06-28T19:17:13Z</time>
      </trkpt>
      <trkpt lat="45.94932" lon="4.494">
        <ele>611</ele>
        <time>2019-06-28T19:17:14Z</time>
      </trkpt>
      <trkpt lat="45.94932" lon="4.49425">
        <ele>611</ele>
        <time>2019-06-28T19:17:18Z</time>
      </trkpt>
      <trkpt lat="45.94915" lon="4.49521">
        <ele>605</ele>
        <time>2019-06-28T19:17:34Z</time>
      </trkpt>
      <trkpt lat="45.9487" lon="4.49609">
        <ele>598</ele>
        <time>2019-06-28T19:17:52Z</time>
      </trkpt>
      <trkpt lat="45.94856" lon="4.49648">
        <ele>592</ele>
        <time>2019-06-28T19:17:59Z</time>
      </trkpt>
      <trkpt lat="45.94856" lon="4.49686">
        <ele>584</ele>
        <time>2019-06-28T19:18:05Z</time>
      </trkpt>
      <trkpt lat="45.94861" lon="4.49716">
        <ele>575</ele>
        <time>2019-06-28T19:18:10Z</time>
      </trkpt>
      <trkpt lat="45.94873" lon="4.49728">
        <ele>572</ele>
        <time>2019-06-28T19:18:14Z</time>
      </trkpt>
      <trkpt lat="45.949" lon="4.49737">
        <ele>570</ele>
        <time>2019-06-28T19:18:20Z</time>
      </trkpt>
      <trkpt lat="45.94909" lon="4.49746">
        <ele>568</ele>
        <time>2019-06-28T19:18:23Z</time>
      </trkpt>
      <trkpt lat="45.94903" lon="4.49792">
        <ele>558</ele>
        <time>2019-06-28T19:18:30Z</time>
      </trkpt>
      <trkpt lat="45.94903" lon="4.49839">
        <ele>548</ele>
        <time>2019-06-28T19:18:38Z</time>
      </trkpt>
      <trkpt lat="45.94899" lon="4.49916">
        <ele>540</ele>
        <time>2019-06-28T19:18:51Z</time>
      </trkpt>
      <trkpt lat="45.9488" lon="4.49955">
        <ele>533</ele>
        <time>2019-06-28T19:18:58Z</time>
      </trkpt>
      <trkpt lat="45.94882" lon="4.50027">
        <ele>525</ele>
        <time>2019-06-28T19:19:10Z</time>
      </trkpt>
      <trkpt lat="45.94874" lon="4.50158">
        <ele>514</ele>
        <time>2019-06-28T19:19:31Z</time>
      </trkpt>
      <trkpt lat="45.94863" lon="4.50223">
        <ele>510</ele>
        <time>2019-06-28T19:19:42Z</time>
      </trkpt>
      <trkpt lat="45.94861" lon="4.50401">
        <ele>488</ele>
        <time>2019-06-28T19:20:11Z</time>
      </trkpt>
      <trkpt lat="45.94854" lon="4.50443">
        <ele>482</ele>
        <time>2019-06-28T19:20:18Z</time>
      </trkpt>
      <trkpt lat="45.94856" lon="4.50454">
        <ele>480</ele>
        <time>2019-06-28T19:20:20Z</time>
      </trkpt>
      <trkpt lat="45.94871" lon="4.50478">
        <ele>477</ele>
        <time>2019-06-28T19:20:25Z</time>
      </trkpt>
      <trkpt lat="45.94871" lon="4.50488">
        <ele>475</ele>
        <time>2019-06-28T19:20:27Z</time>
      </trkpt>
      <trkpt lat="45.94864" lon="4.5054">
        <ele>468</ele>
        <time>2019-06-28T19:20:35Z</time>
      </trkpt>
      <trkpt lat="45.94847" lon="4.50587">
        <ele>461</ele>
        <time>2019-06-28T19:20:44Z</time>
      </trkpt>
      <trkpt lat="45.94848" lon="4.50597">
        <ele>460</ele>
        <time>2019-06-28T19:20:46Z</time>
      </trkpt>
      <trkpt lat="45.94878" lon="4.50673">
        <ele>450</ele>
        <time>2019-06-28T19:21:00Z</time>
      </trkpt>
      <trkpt lat="45.94879" lon="4.5068">
        <ele>450</ele>
        <time>2019-06-28T19:21:01Z</time>
      </trkpt>
      <trkpt lat="45.94878" lon="4.50693">
        <ele>448</ele>
        <time>2019-06-28T19:21:03Z</time>
      </trkpt>
      <trkpt lat="45.94868" lon="4.50733">
        <ele>444</ele>
        <time>2019-06-28T19:21:10Z</time>
      </trkpt>
      <trkpt lat="45.94844" lon="4.50774">
        <ele>440</ele>
        <time>2019-06-28T19:21:19Z</time>
      </trkpt>
      <trkpt lat="45.9483" lon="4.50789">
        <ele>437</ele>
        <time>2019-06-28T19:21:23Z</time>
      </trkpt>
      <trkpt lat="45.94826" lon="4.50802">
        <ele>435</ele>
        <time>2019-06-28T19:21:25Z</time>
      </trkpt>
      <trkpt lat="45.94831" lon="4.50872">
        <ele>431</ele>
        <time>2019-06-28T19:21:37Z</time>
      </trkpt>
      <trkpt lat="45.94846" lon="4.51014">
        <ele>422</ele>
        <time>2019-06-28T19:22:00Z</time>
      </trkpt>
      <trkpt lat="45.94855" lon="4.51058">
        <ele>421</ele>
        <time>2019-06-28T19:22:07Z</time>
      </trkpt>
      <trkpt lat="45.94869" lon="4.51083">
        <ele>420</ele>
        <time>2019-06-28T19:22:13Z</time>
      </trkpt>
      <trkpt lat="45.94872" lon="4.51096">
        <ele>419</ele>
        <time>2019-06-28T19:22:15Z</time>
      </trkpt>
      <trkpt lat="45.94876" lon="4.51144">
        <ele>416</ele>
        <time>2019-06-28T19:22:23Z</time>
      </trkpt>
      <trkpt lat="45.94875" lon="4.51171">
        <ele>415</ele>
        <time>2019-06-28T19:22:27Z</time>
      </trkpt>
      <trkpt lat="45.94872" lon="4.51189">
        <ele>413</ele>
        <time>2019-06-28T19:22:30Z</time>
      </trkpt>
      <trkpt lat="45.94863" lon="4.51215">
        <ele>412</ele>
        <time>2019-06-28T19:22:35Z</time>
      </trkpt>
      <trkpt lat="45.94858" lon="4.51269">
        <ele>408</ele>
        <time>2019-06-28T19:22:44Z</time>
      </trkpt>
      <trkpt lat="45.94841" lon="4.51321">
        <ele>405</ele>
        <time>2019-06-28T19:22:53Z</time>
      </trkpt>
      <trkpt lat="45.94836" lon="4.51349">
        <ele>404</ele>
        <time>2019-06-28T19:22:58Z</time>
      </trkpt>
      <trkpt lat="45.94834" lon="4.51398">
        <ele>400</ele>
        <time>2019-06-28T19:23:06Z</time>
      </trkpt>
      <trkpt lat="45.94838" lon="4.51486">
        <ele>395</ele>
        <time>2019-06-28T19:23:20Z</time>
      </trkpt>
      <trkpt lat="45.94831" lon="4.51563">
        <ele>389</ele>
        <time>2019-06-28T19:23:33Z</time>
      </trkpt>
      <trkpt lat="45.9483" lon="4.5164">
        <ele>383</ele>
        <time>2019-06-28T19:23:45Z</time>
      </trkpt>
      <trkpt lat="45.94823" lon="4.51709">
        <ele>377</ele>
        <time>2019-06-28T19:23:56Z</time>
      </trkpt>
      <trkpt lat="45.94814" lon="4.51746">
        <ele>373</ele>
        <time>2019-06-28T19:24:03Z</time>
      </trkpt>
      <trkpt lat="45.94795" lon="4.51915">
        <ele>354</ele>
        <time>2019-06-28T19:24:31Z</time>
      </trkpt>
      <trkpt lat="45.94792" lon="4.51994">
        <ele>347</ele>
        <time>2019-06-28T19:24:43Z</time>
      </trkpt>
      <trkpt lat="45.94781" lon="4.52056">
        <ele>340</ele>
        <time>2019-06-28T19:24:54Z</time>
      </trkpt>
      <trkpt lat="45.94763" lon="4.52086">
        <ele>336</ele>
        <time>2019-06-28T19:25:00Z</time>
      </trkpt>
      <trkpt lat="45.94742" lon="4.5213">
        <ele>332</ele>
        <time>2019-06-28T19:25:09Z</time>
      </trkpt>
      <trkpt lat="45.94721" lon="4.52178">
        <ele>330</ele>
        <time>2019-06-28T19:25:18Z</time>
      </trkpt>
      <trkpt lat="45.94708" lon="4.52218">
        <ele>331</ele>
        <time>2019-06-28T19:25:25Z</time>
      </trkpt>
      <trkpt lat="45.947" lon="4.52233">
        <ele>331</ele>
        <time>2019-06-28T19:25:28Z</time>
      </trkpt>
      <trkpt lat="45.94695" lon="4.52236">
        <ele>330</ele>
        <time>2019-06-28T19:25:30Z</time>
      </trkpt>
      <trkpt lat="45.94707" lon="4.52244">
        <ele>331</ele>
        <time>2019-06-28T19:25:33Z</time>
      </trkpt>
      <trkpt lat="45.9471" lon="4.52256">
        <ele>331</ele>
        <time>2019-06-28T19:25:35Z</time>
      </trkpt>
      <trkpt lat="45.94712" lon="4.52301">
        <ele>332</ele>
        <time>2019-06-28T19:25:42Z</time>
      </trkpt>
      <trkpt lat="45.94707" lon="4.52334">
        <ele>332</ele>
        <time>2019-06-28T19:25:48Z</time>
      </trkpt>
      <trkpt lat="45.94684" lon="4.52439">
        <ele>338</ele>
        <time>2019-06-28T19:26:05Z</time>
      </trkpt>
      <trkpt lat="45.94665" lon="4.52471">
        <ele>341</ele>
        <time>2019-06-28T19:26:12Z</time>
      </trkpt>
      <trkpt lat="45.94652" lon="4.52502">
        <ele>345</ele>
        <time>2019-06-28T19:26:18Z</time>
      </trkpt>
      <trkpt lat="45.9464" lon="4.52513">
        <ele>344</ele>
        <time>2019-06-28T19:26:21Z</time>
      </trkpt>
      <trkpt lat="45.94596" lon="4.52527">
        <ele>341</ele>
        <time>2019-06-28T19:26:32Z</time>
      </trkpt>
      <trkpt lat="45.94589" lon="4.52539">
        <ele>342</ele>
        <time>2019-06-28T19:26:35Z</time>
      </trkpt>
      <trkpt lat="45.94566" lon="4.52552">
        <ele>340</ele>
        <time>2019-06-28T19:26:40Z</time>
      </trkpt>
      <trkpt lat="45.94552" lon="4.52577">
        <ele>341</ele>
        <time>2019-06-28T19:26:45Z</time>
      </trkpt>
      <trkpt lat="45.94546" lon="4.52599">
        <ele>342</ele>
        <time>2019-06-28T19:26:49Z</time>
      </trkpt>
      <trkpt lat="45.94537" lon="4.52654">
        <ele>347</ele>
        <time>2019-06-28T19:26:59Z</time>
      </trkpt>
      <trkpt lat="45.94534" lon="4.52704">
        <ele>348</ele>
        <time>2019-06-28T19:27:07Z</time>
      </trkpt>
      <trkpt lat="45.94536" lon="4.52745">
        <ele>349</ele>
        <time>2019-06-28T19:27:13Z</time>
      </trkpt>
      <trkpt lat="45.9454" lon="4.5275">
        <ele>349</ele>
        <time>2019-06-28T19:27:15Z</time>
      </trkpt>
      <trkpt lat="45.94547" lon="4.52747">
        <ele>349</ele>
        <time>2019-06-28T19:27:16Z</time>
      </trkpt>
      <trkpt lat="45.94558" lon="4.52733">
        <ele>349</ele>
        <time>2019-06-28T19:27:20Z</time>
      </trkpt>
      <trkpt lat="45.94574" lon="4.52701">
        <ele>352</ele>
        <time>2019-06-28T19:27:26Z</time>
      </trkpt>
      <trkpt lat="45.94583" lon="4.5267">
        <ele>357</ele>
        <time>2019-06-28T19:27:32Z</time>
      </trkpt>
      <trkpt lat="45.94588" lon="4.52683">
        <ele>354</ele>
        <time>2019-06-28T19:27:34Z</time>
      </trkpt>
      <trkpt lat="45.94584" lon="4.52722">
        <ele>350</ele>
        <time>2019-06-28T19:27:40Z</time>
      </trkpt>
      <trkpt lat="45.94542" lon="4.52875">
        <ele>332</ele>
        <time>2019-06-28T19:28:07Z</time>
      </trkpt>
      <trkpt lat="45.94533" lon="4.52899">
        <ele>331</ele>
        <time>2019-06-28T19:28:12Z</time>
      </trkpt>
      <trkpt lat="45.94518" lon="4.52929">
        <ele>330</ele>
        <time>2019-06-28T19:28:18Z</time>
      </trkpt>
      <trkpt lat="45.94513" lon="4.52933">
        <ele>331</ele>
        <time>2019-06-28T19:28:19Z</time>
      </trkpt>
      <trkpt lat="45.94508" lon="4.52948">
        <ele>330</ele>
        <time>2019-06-28T19:28:22Z</time>
      </trkpt>
      <trkpt lat="45.94498" lon="4.53002">
        <ele>322</ele>
        <time>2019-06-28T19:28:31Z</time>
      </trkpt>
      <trkpt lat="45.94488" lon="4.5309">
        <ele>310</ele>
        <time>2019-06-28T19:28:45Z</time>
      </trkpt>
      <trkpt lat="45.94476" lon="4.53151">
        <ele>302</ele>
        <time>2019-06-28T19:28:55Z</time>
      </trkpt>
      <trkpt lat="45.94468" lon="4.53218">
        <ele>292</ele>
        <time>2019-06-28T19:29:06Z</time>
      </trkpt>
      <trkpt lat="45.94467" lon="4.53242">
        <ele>288</ele>
        <time>2019-06-28T19:29:10Z</time>
      </trkpt>
      <trkpt lat="45.9447" lon="4.53257">
        <ele>286</ele>
        <time>2019-06-28T19:29:13Z</time>
      </trkpt>
      <trkpt lat="45.94468" lon="4.53302">
        <ele>283</ele>
        <time>2019-06-28T19:29:20Z</time>
      </trkpt>
      <trkpt lat="45.94462" lon="4.53318">
        <ele>282</ele>
        <time>2019-06-28T19:29:23Z</time>
      </trkpt>
      <trkpt lat="45.94463" lon="4.53327">
        <ele>281</ele>
        <time>2019-06-28T19:29:25Z</time>
      </trkpt>
      <trkpt lat="45.94455" lon="4.53344">
        <ele>280</ele>
        <time>2019-06-28T19:29:28Z</time>
      </trkpt>
      <trkpt lat="45.94426" lon="4.53371">
        <ele>280</ele>
        <time>2019-06-28T19:29:36Z</time>
      </trkpt>
      <trkpt lat="45.94418" lon="4.53389">
        <ele>279</ele>
        <time>2019-06-28T19:29:39Z</time>
      </trkpt>
      <trkpt lat="45.9442" lon="4.53422">
        <ele>277</ele>
        <time>2019-06-28T19:29:45Z</time>
      </trkpt>
      <trkpt lat="45.94435" lon="4.53427">
        <ele>277</ele>
        <time>2019-06-28T19:29:48Z</time>
      </trkpt>
      <trkpt lat="45.9446" lon="4.53494">
        <ele>275</ele>
        <time>2019-06-28T19:30:01Z</time>
      </trkpt>
      <trkpt lat="45.94477" lon="4.5355">
        <ele>274</ele>
        <time>2019-06-28T19:30:11Z</time>
      </trkpt>
      <trkpt lat="45.945" lon="4.536">
        <ele>274</ele>
        <time>2019-06-28T19:30:20Z</time>
      </trkpt>
      <trkpt lat="45.94521" lon="4.53631">
        <ele>274</ele>
        <time>2019-06-28T19:30:28Z</time>
      </trkpt>
      <trkpt lat="45.94561" lon="4.5368">
        <ele>277</ele>
        <time>2019-06-28T19:30:40Z</time>
      </trkpt>
      <trkpt lat="45.94579" lon="4.53708">
        <ele>280</ele>
        <time>2019-06-28T19:30:46Z</time>
      </trkpt>
      <trkpt lat="45.94552" lon="4.53748">
        <ele>282</ele>
        <time>2019-06-28T19:30:55Z</time>
      </trkpt>
      <trkpt lat="45.94571" lon="4.53765">
        <ele>285</ele>
        <time>2019-06-28T19:31:00Z</time>
      </trkpt>
      <trkpt lat="45.94584" lon="4.5385">
        <ele>296</ele>
        <time>2019-06-28T19:31:14Z</time>
      </trkpt>
      <trkpt lat="45.94584" lon="4.53888">
        <ele>299</ele>
        <time>2019-06-28T19:31:21Z</time>
      </trkpt>
      <trkpt lat="45.94586" lon="4.53897">
        <ele>300</ele>
        <time>2019-06-28T19:31:22Z</time>
      </trkpt>
      <trkpt lat="45.94631" lon="4.53948">
        <ele>307</ele>
        <time>2019-06-28T19:31:35Z</time>
      </trkpt>
      <trkpt lat="45.9464" lon="4.53948">
        <ele>308</ele>
        <time>2019-06-28T19:31:38Z</time>
      </trkpt>
      <trkpt lat="45.94666" lon="4.53915">
        <ele>307</ele>
        <time>2019-06-28T19:31:46Z</time>
      </trkpt>
      <trkpt lat="45.94687" lon="4.53878">
        <ele>308</ele>
        <time>2019-06-28T19:31:53Z</time>
      </trkpt>
      <trkpt lat="45.94702" lon="4.53867">
        <ele>310</ele>
        <time>2019-06-28T19:31:57Z</time>
      </trkpt>
      <trkpt lat="45.94733" lon="4.53864">
        <ele>316</ele>
        <time>2019-06-28T19:32:05Z</time>
      </trkpt>
      <trkpt lat="45.94739" lon="4.53893">
        <ele>318</ele>
        <time>2019-06-28T19:32:10Z</time>
      </trkpt>
      <trkpt lat="45.94739" lon="4.5391">
        <ele>319</ele>
        <time>2019-06-28T19:32:12Z</time>
      </trkpt>
      <trkpt lat="45.94741" lon="4.53916">
        <ele>319</ele>
        <time>2019-06-28T19:32:13Z</time>
      </trkpt>
      <trkpt lat="45.94745" lon="4.53917">
        <ele>320</ele>
        <time>2019-06-28T19:32:14Z</time>
      </trkpt>
      <trkpt lat="45.94747" lon="4.53914">
        <ele>320</ele>
        <time>2019-06-28T19:32:15Z</time>
      </trkpt>
      <trkpt lat="45.94751" lon="4.53919">
        <ele>321</ele>
        <time>2019-06-28T19:32:16Z</time>
      </trkpt>
      <trkpt lat="45.94753" lon="4.53947">
        <ele>324</ele>
        <time>2019-06-28T19:32:21Z</time>
      </trkpt>
      <trkpt lat="45.94758" lon="4.53958">
        <ele>326</ele>
        <time>2019-06-28T19:32:23Z</time>
      </trkpt>
      <trkpt lat="45.94763" lon="4.53981">
        <ele>330</ele>
        <time>2019-06-28T19:32:27Z</time>
      </trkpt>
      <trkpt lat="45.94786" lon="4.53981">
        <ele>335</ele>
        <time>2019-06-28T19:32:32Z</time>
      </trkpt>
      <trkpt lat="45.9481" lon="4.5401">
        <ele>344</ele>
        <time>2019-06-28T19:32:40Z</time>
      </trkpt>
      <trkpt lat="45.94833" lon="4.54008">
        <ele>349</ele>
        <time>2019-06-28T19:32:45Z</time>
      </trkpt>
      <trkpt lat="45.94866" lon="4.54025">
        <ele>357</ele>
        <time>2019-06-28T19:32:53Z</time>
      </trkpt>
      <trkpt lat="45.94903" lon="4.5404">
        <ele>366</ele>
        <time>2019-06-28T19:33:02Z</time>
      </trkpt>
      <trkpt lat="45.94919" lon="4.54044">
        <ele>370</ele>
        <time>2019-06-28T19:33:06Z</time>
      </trkpt>
      <trkpt lat="45.95015" lon="4.54143">
        <ele>381</ele>
        <time>2019-06-28T19:33:33Z</time>
      </trkpt>
      <trkpt lat="45.95051" lon="4.54184">
        <ele>383</ele>
        <time>2019-06-28T19:33:44Z</time>
      </trkpt>
      <trkpt lat="45.95068" lon="4.54183">
        <ele>384</ele>
        <time>2019-06-28T19:33:48Z</time>
      </trkpt>
      <trkpt lat="45.95103" lon="4.54173">
        <ele>384</ele>
        <time>2019-06-28T19:33:56Z</time>
      </trkpt>
      <trkpt lat="45.95122" lon="4.54176">
        <ele>384</ele>
        <time>2019-06-28T19:34:01Z</time>
      </trkpt>
      <trkpt lat="45.95152" lon="4.54185">
        <ele>384</ele>
        <time>2019-06-28T19:34:08Z</time>
      </trkpt>
      <trkpt lat="45.95196" lon="4.54216">
        <ele>386</ele>
        <time>2019-06-28T19:34:20Z</time>
      </trkpt>
      <trkpt lat="45.95206" lon="4.54236">
        <ele>388</ele>
        <time>2019-06-28T19:34:24Z</time>
      </trkpt>
      <trkpt lat="45.95248" lon="4.54342">
        <ele>389</ele>
        <time>2019-06-28T19:34:43Z</time>
      </trkpt>
      <trkpt lat="45.95303" lon="4.54465">
        <ele>391</ele>
        <time>2019-06-28T19:35:07Z</time>
      </trkpt>
      <trkpt lat="45.95303" lon="4.54521">
        <ele>391</ele>
        <time>2019-06-28T19:35:16Z</time>
      </trkpt>
      <trkpt lat="45.95299" lon="4.54609">
        <ele>394</ele>
        <time>2019-06-28T19:35:31Z</time>
      </trkpt>
      <trkpt lat="45.95284" lon="4.54681">
        <ele>396</ele>
        <time>2019-06-28T19:35:43Z</time>
      </trkpt>
      <trkpt lat="45.95283" lon="4.5471">
        <ele>396</ele>
        <time>2019-06-28T19:35:47Z</time>
      </trkpt>
      <trkpt lat="45.95288" lon="4.54731">
        <ele>396</ele>
        <time>2019-06-28T19:35:51Z</time>
      </trkpt>
      <trkpt lat="45.95301" lon="4.54746">
        <ele>398</ele>
        <time>2019-06-28T19:35:55Z</time>
      </trkpt>
      <trkpt lat="45.95364" lon="4.54793">
        <ele>405</ele>
        <time>2019-06-28T19:36:11Z</time>
      </trkpt>
      <trkpt lat="45.9536" lon="4.54855">
        <ele>404</ele>
        <time>2019-06-28T19:36:22Z</time>
      </trkpt>
      <trkpt lat="45.95369" lon="4.54909">
        <ele>405</ele>
        <time>2019-06-28T19:36:31Z</time>
      </trkpt>
      <trkpt lat="45.95372" lon="4.54993">
        <ele>404</ele>
        <time>2019-06-28T19:36:44Z</time>
      </trkpt>
      <trkpt lat="45.95381" lon="4.55041">
        <ele>401</ele>
        <time>2019-06-28T19:36:52Z</time>
      </trkpt>
      <trkpt lat="45.95381" lon="4.55081">
        <ele>398</ele>
        <time>2019-06-28T19:36:59Z</time>
      </trkpt>
      <trkpt lat="45.95396" lon="4.55144">
        <ele>394</ele>
        <time>2019-06-28T19:37:10Z</time>
      </trkpt>
      <trkpt lat="45.95429" lon="4.55209">
        <ele>393</ele>
        <time>2019-06-28T19:37:23Z</time>
      </trkpt>
      <trkpt lat="45.95427" lon="4.55235">
        <ele>391</ele>
        <time>2019-06-28T19:37:27Z</time>
      </trkpt>
      <trkpt lat="45.95409" lon="4.55335">
        <ele>386</ele>
        <time>2019-06-28T19:37:44Z</time>
      </trkpt>
      <trkpt lat="45.95408" lon="4.55418">
        <ele>389</ele>
        <time>2019-06-28T19:37:57Z</time>
      </trkpt>
      <trkpt lat="45.95396" lon="4.55445">
        <ele>389</ele>
        <time>2019-06-28T19:38:02Z</time>
      </trkpt>
      <trkpt lat="45.95402" lon="4.55463">
        <ele>390</ele>
        <time>2019-06-28T19:38:06Z</time>
      </trkpt>
      <trkpt lat="45.95398" lon="4.55489">
        <ele>391</ele>
        <time>2019-06-28T19:38:10Z</time>
      </trkpt>
      <trkpt lat="45.95382" lon="4.55538">
        <ele>394</ele>
        <time>2019-06-28T19:38:19Z</time>
      </trkpt>
      <trkpt lat="45.95359" lon="4.55637">
        <ele>398</ele>
        <time>2019-06-28T19:38:36Z</time>
      </trkpt>
      <trkpt lat="45.95359" lon="4.5565">
        <ele>398</ele>
        <time>2019-06-28T19:38:38Z</time>
      </trkpt>
      <trkpt lat="45.95331" lon="4.55729">
        <ele>391</ele>
        <time>2019-06-28T19:38:52Z</time>
      </trkpt>
      <trkpt lat="45.95329" lon="4.55747">
        <ele>389</ele>
        <time>2019-06-28T19:38:55Z</time>
      </trkpt>
      <trkpt lat="45.95338" lon="4.55772">
        <ele>389</ele>
        <time>2019-06-28T19:39:00Z</time>
      </trkpt>
      <trkpt lat="45.9534" lon="4.55793">
        <ele>388</ele>
        <time>2019-06-28T19:39:03Z</time>
      </trkpt>
      <trkpt lat="45.95335" lon="4.55815">
        <ele>385</ele>
        <time>2019-06-28T19:39:07Z</time>
      </trkpt>
      <trkpt lat="45.95285" lon="4.55913">
        <ele>373</ele>
        <time>2019-06-28T19:39:27Z</time>
      </trkpt>
      <trkpt lat="45.95256" lon="4.55935">
        <ele>367</ele>
        <time>2019-06-28T19:39:34Z</time>
      </trkpt>
      <trkpt lat="45.95199" lon="4.55972">
        <ele>356</ele>
        <time>2019-06-28T19:39:49Z</time>
      </trkpt>
      <trkpt lat="45.95171" lon="4.55973">
        <ele>351</ele>
        <time>2019-06-28T19:39:55Z</time>
      </trkpt>
      <trkpt lat="45.95159" lon="4.5597">
        <ele>350</ele>
        <time>2019-06-28T19:39:58Z</time>
      </trkpt>
      <trkpt lat="45.95153" lon="4.55973">
        <ele>350</ele>
        <time>2019-06-28T19:40:00Z</time>
      </trkpt>
      <trkpt lat="45.95151" lon="4.55987">
        <ele>349</ele>
        <time>2019-06-28T19:40:02Z</time>
      </trkpt>
      <trkpt lat="45.95152" lon="4.55995">
        <ele>348</ele>
        <time>2019-06-28T19:40:03Z</time>
      </trkpt>
      <trkpt lat="45.95157" lon="4.56003">
        <ele>348</ele>
        <time>2019-06-28T19:40:05Z</time>
      </trkpt>
      <trkpt lat="45.95223" lon="4.56036">
        <ele>357</ele>
        <time>2019-06-28T19:40:22Z</time>
      </trkpt>
      <trkpt lat="45.95228" lon="4.56044">
        <ele>357</ele>
        <time>2019-06-28T19:40:23Z</time>
      </trkpt>
      <trkpt lat="45.9523" lon="4.56058">
        <ele>357</ele>
        <time>2019-06-28T19:40:26Z</time>
      </trkpt>
      <trkpt lat="45.95229" lon="4.56074">
        <ele>356</ele>
        <time>2019-06-28T19:40:28Z</time>
      </trkpt>
      <trkpt lat="45.95215" lon="4.56084">
        <ele>353</ele>
        <time>2019-06-28T19:40:32Z</time>
      </trkpt>
      <trkpt lat="45.95189" lon="4.56093">
        <ele>348</ele>
        <time>2019-06-28T19:40:38Z</time>
      </trkpt>
      <trkpt lat="45.95192" lon="4.56097">
        <ele>349</ele>
        <time>2019-06-28T19:40:39Z</time>
      </trkpt>
      <trkpt lat="45.95194" lon="4.5611">
        <ele>349</ele>
        <time>2019-06-28T19:40:41Z</time>
      </trkpt>
      <trkpt lat="45.9519" lon="4.56129">
        <ele>349</ele>
        <time>2019-06-28T19:40:44Z</time>
      </trkpt>
      <trkpt lat="45.95207" lon="4.56186">
        <ele>353</ele>
        <time>2019-06-28T19:40:55Z</time>
      </trkpt>
      <trkpt lat="45.95226" lon="4.56262">
        <ele>358</ele>
        <time>2019-06-28T19:41:08Z</time>
      </trkpt>
      <trkpt lat="45.95238" lon="4.56325">
        <ele>359</ele>
        <time>2019-06-28T19:41:18Z</time>
      </trkpt>
      <trkpt lat="45.95243" lon="4.56341">
        <ele>360</ele>
        <time>2019-06-28T19:41:21Z</time>
      </trkpt>
      <trkpt lat="45.95252" lon="4.56357">
        <ele>361</ele>
        <time>2019-06-28T19:41:24Z</time>
      </trkpt>
      <trkpt lat="45.95276" lon="4.56456">
        <ele>363</ele>
        <time>2019-06-28T19:41:41Z</time>
      </trkpt>
      <trkpt lat="45.95278" lon="4.56476">
        <ele>363</ele>
        <time>2019-06-28T19:41:45Z</time>
      </trkpt>
      <trkpt lat="45.95284" lon="4.56489">
        <ele>363</ele>
        <time>2019-06-28T19:41:47Z</time>
      </trkpt>
      <trkpt lat="45.95293" lon="4.56534">
        <ele>363</ele>
        <time>2019-06-28T19:41:55Z</time>
      </trkpt>
      <trkpt lat="45.953" lon="4.56585">
        <ele>363</ele>
        <time>2019-06-28T19:42:03Z</time>
      </trkpt>
      <trkpt lat="45.95296" lon="4.5661">
        <ele>361</ele>
        <time>2019-06-28T19:42:07Z</time>
      </trkpt>
      <trkpt lat="45.95294" lon="4.56648">
        <ele>359</ele>
        <time>2019-06-28T19:42:14Z</time>
      </trkpt>
      <trkpt lat="45.95299" lon="4.56691">
        <ele>357</ele>
        <time>2019-06-28T19:42:21Z</time>
      </trkpt>
      <trkpt lat="45.95317" lon="4.56715">
        <ele>358</ele>
        <time>2019-06-28T19:42:26Z</time>
      </trkpt>
      <trkpt lat="45.95334" lon="4.56722">
        <ele>359</ele>
        <time>2019-06-28T19:42:31Z</time>
      </trkpt>
      <trkpt lat="45.95333" lon="4.56734">
        <ele>358</ele>
        <time>2019-06-28T19:42:33Z</time>
      </trkpt>
      <trkpt lat="45.95326" lon="4.56756">
        <ele>356</ele>
        <time>2019-06-28T19:42:36Z</time>
      </trkpt>
      <trkpt lat="45.95306" lon="4.5677">
        <ele>355</ele>
        <time>2019-06-28T19:42:42Z</time>
      </trkpt>
      <trkpt lat="45.95284" lon="4.56798">
        <ele>355</ele>
        <time>2019-06-28T19:42:49Z</time>
      </trkpt>
      <trkpt lat="45.95265" lon="4.56836">
        <ele>358</ele>
        <time>2019-06-28T19:42:56Z</time>
      </trkpt>
      <trkpt lat="45.95259" lon="4.56904">
        <ele>363</ele>
        <time>2019-06-28T19:43:07Z</time>
      </trkpt>
      <trkpt lat="45.95255" lon="4.57008">
        <ele>369</ele>
        <time>2019-06-28T19:43:24Z</time>
      </trkpt>
      <trkpt lat="45.95263" lon="4.5706">
        <ele>370</ele>
        <time>2019-06-28T19:43:33Z</time>
      </trkpt>
      <trkpt lat="45.9528" lon="4.5708">
        <ele>369</ele>
        <time>2019-06-28T19:43:38Z</time>
      </trkpt>
      <trkpt lat="45.95299" lon="4.57083">
        <ele>367</ele>
        <time>2019-06-28T19:43:42Z</time>
      </trkpt>
      <trkpt lat="45.95324" lon="4.57091">
        <ele>365</ele>
        <time>2019-06-28T19:43:48Z</time>
      </trkpt>
      <trkpt lat="45.95372" lon="4.57126">
        <ele>366</ele>
        <time>2019-06-28T19:44:01Z</time>
      </trkpt>
      <trkpt lat="45.9543" lon="4.57241">
        <ele>368</ele>
        <time>2019-06-28T19:44:24Z</time>
      </trkpt>
      <trkpt lat="45.95454" lon="4.57282">
        <ele>369</ele>
        <time>2019-06-28T19:44:33Z</time>
      </trkpt>
      <trkpt lat="45.95472" lon="4.57303">
        <ele>369</ele>
        <time>2019-06-28T19:44:38Z</time>
      </trkpt>
      <trkpt lat="45.95493" lon="4.57313">
        <ele>367</ele>
        <time>2019-06-28T19:44:43Z</time>
      </trkpt>
      <trkpt lat="45.95551" lon="4.57331">
        <ele>369</ele>
        <time>2019-06-28T19:44:57Z</time>
      </trkpt>
      <trkpt lat="45.95537" lon="4.57357">
        <ele>371</ele>
        <time>2019-06-28T19:45:03Z</time>
      </trkpt>
      <trkpt lat="45.95488" lon="4.57474">
        <ele>384</ele>
        <time>2019-06-28T19:45:25Z</time>
      </trkpt>
      <trkpt lat="45.9545" lon="4.5753">
        <ele>395</ele>
        <time>2019-06-28T19:45:37Z</time>
      </trkpt>
      <trkpt lat="45.9544" lon="4.57565">
        <ele>400</ele>
        <time>2019-06-28T19:45:44Z</time>
      </trkpt>
      <trkpt lat="45.9544" lon="4.57579">
        <ele>402</ele>
        <time>2019-06-28T19:45:46Z</time>
      </trkpt>
      <trkpt lat="45.95437" lon="4.57586">
        <ele>403</ele>
        <time>2019-06-28T19:45:47Z</time>
      </trkpt>
      <trkpt lat="45.95428" lon="4.57586">
        <ele>405</ele>
        <time>2019-06-28T19:45:49Z</time>
      </trkpt>
      <trkpt lat="45.95416" lon="4.5757">
        <ele>404</ele>
        <time>2019-06-28T19:45:53Z</time>
      </trkpt>
      <trkpt lat="45.95383" lon="4.57567">
        <ele>407</ele>
        <time>2019-06-28T19:46:01Z</time>
      </trkpt>
      <trkpt lat="45.95348" lon="4.57568">
        <ele>411</ele>
        <time>2019-06-28T19:46:09Z</time>
      </trkpt>
      <trkpt lat="45.95331" lon="4.57563">
        <ele>412</ele>
        <time>2019-06-28T19:46:13Z</time>
      </trkpt>
      <trkpt lat="45.95321" lon="4.57555">
        <ele>414</ele>
        <time>2019-06-28T19:46:16Z</time>
      </trkpt>
      <trkpt lat="45.95318" lon="4.57538">
        <ele>413</ele>
        <time>2019-06-28T19:46:19Z</time>
      </trkpt>
      <trkpt lat="45.95301" lon="4.57545">
        <ele>418</ele>
        <time>2019-06-28T19:46:23Z</time>
      </trkpt>
      <trkpt lat="45.95297" lon="4.57552">
        <ele>420</ele>
        <time>2019-06-28T19:46:24Z</time>
      </trkpt>
      <trkpt lat="45.95288" lon="4.57553">
        <ele>422</ele>
        <time>2019-06-28T19:46:26Z</time>
      </trkpt>
      <trkpt lat="45.95264" lon="4.57545">
        <ele>428</ele>
        <time>2019-06-28T19:46:32Z</time>
      </trkpt>
      <trkpt lat="45.95252" lon="4.57552">
        <ele>431</ele>
        <time>2019-06-28T19:46:35Z</time>
      </trkpt>
      <trkpt lat="45.95232" lon="4.5757">
        <ele>436</ele>
        <time>2019-06-28T19:46:41Z</time>
      </trkpt>
      <trkpt lat="45.95209" lon="4.57605">
        <ele>441</ele>
        <time>2019-06-28T19:46:48Z</time>
      </trkpt>
      <trkpt lat="45.9519" lon="4.57614">
        <ele>443</ele>
        <time>2019-06-28T19:46:53Z</time>
      </trkpt>
      <trkpt lat="45.95157" lon="4.57644">
        <ele>445</ele>
        <time>2019-06-28T19:47:02Z</time>
      </trkpt>
      <trkpt lat="45.95071" lon="4.57735">
        <ele>455</ele>
        <time>2019-06-28T19:47:27Z</time>
      </trkpt>
      <trkpt lat="45.95001" lon="4.57773">
        <ele>458</ele>
        <time>2019-06-28T19:47:45Z</time>
      </trkpt>
      <trkpt lat="45.94949" lon="4.57791">
        <ele>464</ele>
        <time>2019-06-28T19:47:57Z</time>
      </trkpt>
      <trkpt lat="45.94912" lon="4.57798">
        <ele>467</ele>
        <time>2019-06-28T19:48:06Z</time>
      </trkpt>
      <trkpt lat="45.9477" lon="4.57831">
        <ele>476</ele>
        <time>2019-06-28T19:48:39Z</time>
      </trkpt>
      <trkpt lat="45.94717" lon="4.57846">
        <ele>480.3</ele>
        <time>2019-06-28T19:48:48Z</time>
      </trkpt>
      <trkpt lat="45.94726" lon="4.57626">
        <ele>474.4</ele>
      </trkpt>
      <trkpt lat="45.94713" lon="4.57561">
        <ele>469.3</ele>
      </trkpt>
      <trkpt lat="45.94692" lon="4.57467">
        <ele>465.1</ele>
        <time>2019-06-28T19:48:52Z</time>
      </trkpt>
    </trkseg>
  </trk>
</gpx>